SIA22 WSSS-KEWR
Flight info
| Callsign | SIA22 |
|---|---|
| Flight time | N/A |
| Altitude | 32000 |
| Route | TOMAN5F TOMAN L625 AKMON/K0954F320 L625 ANOKI/N0514F320 L625 ARESI/N0504F350 L625 MEVIN B462 KAZIK Y59 AZAMA Y57 SHIBK/N0492F370 Y57 PUTER A590 PASRO/N0485F390 A590 HAMND/N0495F410 DCT TED J511 GKN J124 ORT DCT 63N140W 63N130W 62N120W 59N110W 5530N10000W DCT MISAX DCT SSM DCT BUF DCT HNK FLOSI4 |
| Aircraft | A359/H-SDE2E3GHIJ3J4J5LM1ORWXY/LB1D1 |
Departure
| Time | 2026-05-07 23:25 |
|---|---|
| Airport | Singapore Changi Airport (WSSS) |
Arrival
| Time | N/A |
|---|---|
| Airport | Newark Liberty International Airport (KEWR) |
| Time | Latitude | Longitude | Altitude | Speed | Heading |
|---|---|---|---|---|---|
| 2026-05-07 22:57 | 1.35022 | 103.98206 | 36 ft | 0 kts | 152° |
| 2026-05-07 23:03 | 1.35031 | 103.98202 | 36 ft | 4 kts | 152° |
| 2026-05-07 23:04 | 1.35055 | 103.98189 | 36 ft | 4 kts | 152° |
| 2026-05-07 23:04 | 1.35076 | 103.98178 | 35 ft | 4 kts | 144° |
| 2026-05-07 23:04 | 1.35094 | 103.98162 | 32 ft | 4 kts | 115° |
| 2026-05-07 23:04 | 1.35099 | 103.98145 | 33 ft | 4 kts | 72° |
| 2026-05-07 23:05 | 1.35088 | 103.98127 | 34 ft | 4 kts | 39° |
| 2026-05-07 23:05 | 1.35066 | 103.98112 | 36 ft | 4 kts | 26° |
| 2026-05-07 23:05 | 1.35042 | 103.98101 | 33 ft | 4 kts | 22° |
| 2026-05-07 23:05 | 1.35022 | 103.98092 | 34 ft | 0 kts | 22° |
| 2026-05-07 23:06 | 1.35021 | 103.98092 | 34 ft | 5 kts | 22° |
| 2026-05-07 23:11 | 1.35022 | 103.98093 | 36 ft | 0 kts | 22° |
| 2026-05-07 23:11 | 1.35036 | 103.98099 | 36 ft | 5 kts | 22° |
| 2026-05-07 23:12 | 1.35097 | 103.98124 | 36 ft | 13 kts | 22° |
| 2026-05-07 23:12 | 1.35197 | 103.98166 | 36 ft | 17 kts | 22° |
| 2026-05-07 23:12 | 1.35302 | 103.98210 | 36 ft | 16 kts | 22° |
| 2026-05-07 23:12 | 1.35406 | 103.98254 | 36 ft | 16 kts | 22° |
| 2026-05-07 23:13 | 1.35509 | 103.98296 | 36 ft | 16 kts | 22° |
| 2026-05-07 23:13 | 1.35610 | 103.98339 | 36 ft | 16 kts | 22° |
| 2026-05-07 23:13 | 1.35709 | 103.98380 | 36 ft | 15 kts | 22° |
| 2026-05-07 23:13 | 1.35808 | 103.98422 | 36 ft | 15 kts | 22° |
| 2026-05-07 23:14 | 1.35904 | 103.98462 | 36 ft | 15 kts | 22° |
| 2026-05-07 23:14 | 1.36001 | 103.98503 | 36 ft | 15 kts | 22° |
| 2026-05-07 23:14 | 1.36095 | 103.98542 | 36 ft | 15 kts | 22° |
| 2026-05-07 23:14 | 1.36188 | 103.98581 | 36 ft | 15 kts | 22° |
| 2026-05-07 23:15 | 1.36279 | 103.98622 | 36 ft | 14 kts | 25° |
| 2026-05-07 23:15 | 1.36368 | 103.98660 | 36 ft | 13 kts | 21° |
| 2026-05-07 23:15 | 1.36453 | 103.98697 | 36 ft | 13 kts | 24° |
| 2026-05-07 23:15 | 1.36537 | 103.98734 | 36 ft | 13 kts | 24° |
| 2026-05-07 23:16 | 1.36621 | 103.98772 | 36 ft | 13 kts | 24° |
| 2026-05-07 23:16 | 1.36704 | 103.98808 | 34 ft | 13 kts | 22° |
| 2026-05-07 23:16 | 1.36786 | 103.98842 | 36 ft | 13 kts | 22° |
| 2026-05-07 23:16 | 1.36869 | 103.98875 | 36 ft | 13 kts | 22° |
| 2026-05-07 23:17 | 1.36951 | 103.98906 | 36 ft | 13 kts | 20° |
| 2026-05-07 23:17 | 1.37034 | 103.98934 | 36 ft | 12 kts | 12° |
| 2026-05-07 23:17 | 1.37106 | 103.98910 | 36 ft | 11 kts | 329° |
| 2026-05-07 23:17 | 1.37174 | 103.98907 | 36 ft | 9 kts | 18° |
| 2026-05-07 23:18 | 1.37236 | 103.98928 | 36 ft | 10 kts | 20° |
| 2026-05-07 23:18 | 1.37308 | 103.98956 | 36 ft | 13 kts | 21° |
| 2026-05-07 23:18 | 1.37394 | 103.98990 | 36 ft | 14 kts | 22° |
| 2026-05-07 23:18 | 1.37485 | 103.99028 | 36 ft | 15 kts | 22° |
| 2026-05-07 23:19 | 1.37581 | 103.99068 | 36 ft | 15 kts | 22° |
| 2026-05-07 23:19 | 1.37681 | 103.99110 | 36 ft | 16 kts | 22° |
| 2026-05-07 23:19 | 1.37786 | 103.99155 | 36 ft | 17 kts | 24° |
| 2026-05-07 23:19 | 1.37894 | 103.99202 | 36 ft | 17 kts | 24° |
| 2026-05-07 23:20 | 1.38006 | 103.99252 | 36 ft | 18 kts | 24° |
| 2026-05-07 23:20 | 1.38091 | 103.99285 | 35 ft | 9 kts | 14° |
| 2026-05-07 23:20 | 1.38146 | 103.99268 | 36 ft | 5 kts | 319° |
| 2026-05-07 23:20 | 1.38147 | 103.99268 | 36 ft | 0 kts | 319° |
| 2026-05-07 23:22 | 1.38158 | 103.99257 | 36 ft | 7 kts | 312° |
| 2026-05-07 23:23 | 1.38190 | 103.99188 | 36 ft | 12 kts | 282° |
| 2026-05-07 23:23 | 1.38158 | 103.99125 | 36 ft | 10 kts | 210° |
| 2026-05-07 23:23 | 1.38138 | 103.99115 | 36 ft | 0 kts | 205° |
| 2026-05-07 23:24 | 1.38109 | 103.99101 | 36 ft | 23 kts | 204° |
| 2026-05-07 23:24 | 1.37786 | 103.98966 | 36 ft | 75 kts | 202° |
| 2026-05-07 23:24 | 1.37160 | 103.98702 | 37 ft | 120 kts | 203° |
| 2026-05-07 23:24 | 1.36264 | 103.98321 | 37 ft | 159 kts | 203° |
| 2026-05-07 23:25 | 1.35199 | 103.97871 | 360 ft | 162 kts | 205° |
| 2026-05-07 23:25 | 1.34180 | 103.97429 | 766 ft | 160 kts | 202° |
| 2026-05-07 23:25 | 1.33141 | 103.97007 | 1098 ft | 162 kts | 200° |
| 2026-05-07 23:25 | 1.32083 | 103.96615 | 1460 ft | 163 kts | 198° |
| 2026-05-07 23:26 | 1.31007 | 103.96254 | 1800 ft | 164 kts | 197° |
| 2026-05-07 23:26 | 1.29909 | 103.95821 | 1932 ft | 177 kts | 204° |
| 2026-05-07 23:26 | 1.28752 | 103.95270 | 2081 ft | 190 kts | 204° |
| 2026-05-07 23:26 | 1.27509 | 103.94697 | 2302 ft | 203 kts | 203° |
| 2026-05-07 23:27 | 1.24704 | 103.93612 | 2633 ft | 234 kts | 189° |
| 2026-05-07 23:27 | 1.23054 | 103.93793 | 2808 ft | 248 kts | 154° |
| 2026-05-07 23:27 | 1.21651 | 103.94841 | 3136 ft | 257 kts | 135° |
| 2026-05-07 23:28 | 1.20368 | 103.96119 | 3529 ft | 263 kts | 135° |
| 2026-05-07 23:28 | 1.19068 | 103.97420 | 4009 ft | 267 kts | 135° |
| 2026-05-07 23:28 | 1.17737 | 103.98733 | 4472 ft | 271 kts | 136° |
| 2026-05-07 23:28 | 1.16383 | 104.00058 | 4944 ft | 274 kts | 136° |
| 2026-05-07 23:29 | 1.15043 | 104.01416 | 5426 ft | 277 kts | 131° |
| 2026-05-07 23:29 | 1.14025 | 104.03058 | 5841 ft | 280 kts | 115° |
| 2026-05-07 23:29 | 1.13233 | 104.04840 | 6001 ft | 281 kts | 113° |
| 2026-05-07 23:29 | 1.12467 | 104.06636 | 6026 ft | 282 kts | 113° |
| 2026-05-07 23:30 | 1.11694 | 104.08436 | 6012 ft | 282 kts | 114° |
| 2026-05-07 23:30 | 1.10914 | 104.10236 | 6022 ft | 283 kts | 114° |
| 2026-05-07 23:30 | 1.10128 | 104.12041 | 6023 ft | 283 kts | 114° |
| 2026-05-07 23:30 | 1.09342 | 104.13842 | 6017 ft | 283 kts | 114° |
| 2026-05-07 23:31 | 1.08556 | 104.15642 | 6025 ft | 283 kts | 114° |
| 2026-05-07 23:31 | 1.08010 | 104.17520 | 6025 ft | 283 kts | 95° |
| 2026-05-07 23:31 | 1.07987 | 104.19463 | 6196 ft | 284 kts | 88° |
| 2026-05-07 23:31 | 1.08074 | 104.21471 | 6593 ft | 286 kts | 87° |
| 2026-05-07 23:32 | 1.08158 | 104.23434 | 7120 ft | 286 kts | 88° |
| 2026-05-07 23:32 | 1.08237 | 104.25451 | 7653 ft | 288 kts | 88° |
| 2026-05-07 23:32 | 1.08312 | 104.27427 | 8160 ft | 289 kts | 88° |
| 2026-05-07 23:32 | 1.08385 | 104.29442 | 8683 ft | 291 kts | 88° |
| 2026-05-07 23:33 | 1.08458 | 104.31471 | 8973 ft | 293 kts | 88° |
| 2026-05-07 23:33 | 1.08530 | 104.33505 | 9028 ft | 294 kts | 88° |
| 2026-05-07 23:33 | 1.08602 | 104.35543 | 9020 ft | 294 kts | 88° |
| 2026-05-07 23:33 | 1.08674 | 104.37586 | 9017 ft | 294 kts | 88° |
| 2026-05-07 23:34 | 1.08746 | 104.39635 | 9028 ft | 294 kts | 88° |
| 2026-05-07 23:34 | 1.08819 | 104.41678 | 9016 ft | 294 kts | 88° |
| 2026-05-07 23:34 | 1.08913 | 104.43718 | 9017 ft | 294 kts | 85° |
| 2026-05-07 23:34 | 1.09472 | 104.45671 | 9031 ft | 294 kts | 60° |
| 2026-05-07 23:35 | 1.10749 | 104.47256 | 9009 ft | 293 kts | 45° |
| 2026-05-07 23:35 | 1.12212 | 104.48689 | 9031 ft | 296 kts | 44° |
| 2026-05-07 23:35 | 1.13211 | 104.49658 | 9017 ft | 296 kts | 44° |
| 2026-05-07 23:35 | 1.14681 | 104.51094 | 9034 ft | 297 kts | 44° |
| 2026-05-07 23:36 | 1.16138 | 104.52528 | 9016 ft | 297 kts | 44° |
| 2026-05-07 23:36 | 1.17605 | 104.53978 | 9017 ft | 297 kts | 44° |
| 2026-05-07 23:36 | 1.19072 | 104.55431 | 9027 ft | 297 kts | 45° |
| 2026-05-07 23:36 | 1.20538 | 104.56886 | 9014 ft | 297 kts | 44° |
| 2026-05-07 23:37 | 1.22002 | 104.58342 | 9010 ft | 297 kts | 45° |
| 2026-05-07 23:37 | 1.23464 | 104.59801 | 9169 ft | 297 kts | 45° |
| 2026-05-07 23:37 | 1.24939 | 104.61261 | 9588 ft | 300 kts | 45° |
| 2026-05-07 23:37 | 1.26419 | 104.62727 | 10144 ft | 300 kts | 45° |
| 2026-05-07 23:38 | 1.27921 | 104.64216 | 10442 ft | 311 kts | 45° |
| 2026-05-07 23:38 | 1.29488 | 104.65770 | 10661 ft | 323 kts | 45° |
| 2026-05-07 23:38 | 1.31109 | 104.67378 | 10885 ft | 334 kts | 45° |
| 2026-05-07 23:38 | 1.32673 | 104.69140 | 11087 ft | 345 kts | 56° |
| 2026-05-07 23:39 | 1.33657 | 104.71350 | 11236 ft | 355 kts | 78° |
| 2026-05-07 23:39 | 1.33896 | 104.73833 | 11458 ft | 364 kts | 88° |
| 2026-05-07 23:39 | 1.33941 | 104.76395 | 11662 ft | 373 kts | 89° |
| 2026-05-07 23:39 | 1.33981 | 104.79016 | 11856 ft | 382 kts | 89° |
| 2026-05-07 23:40 | 1.34032 | 104.81702 | 12051 ft | 390 kts | 89° |
| 2026-05-07 23:40 | 1.34090 | 104.84432 | 12299 ft | 395 kts | 88° |
| 2026-05-07 23:40 | 1.34153 | 104.87191 | 12633 ft | 398 kts | 88° |
| 2026-05-07 23:40 | 1.34217 | 104.89961 | 12990 ft | 400 kts | 88° |
| 2026-05-07 23:41 | 1.34280 | 104.92745 | 13357 ft | 402 kts | 88° |
| 2026-05-07 23:41 | 1.34347 | 104.95545 | 13715 ft | 403 kts | 88° |
| 2026-05-07 23:41 | 1.34415 | 104.98355 | 14019 ft | 405 kts | 88° |
| 2026-05-07 23:41 | 1.34483 | 105.01178 | 14328 ft | 407 kts | 88° |
| 2026-05-07 23:42 | 1.34551 | 105.04009 | 14633 ft | 408 kts | 88° |
| 2026-05-07 23:42 | 1.34619 | 105.06850 | 14941 ft | 410 kts | 88° |
| 2026-05-07 23:42 | 1.34688 | 105.09704 | 15234 ft | 411 kts | 88° |
| 2026-05-07 23:42 | 1.34756 | 105.12562 | 15517 ft | 413 kts | 88° |
| 2026-05-07 23:43 | 1.34824 | 105.15402 | 15799 ft | 414 kts | 88° |
| 2026-05-07 23:43 | 1.34893 | 105.18282 | 16085 ft | 415 kts | 88° |
| 2026-05-07 23:43 | 1.34963 | 105.21172 | 16365 ft | 417 kts | 88° |
| 2026-05-07 23:43 | 1.35032 | 105.24071 | 16642 ft | 418 kts | 88° |
| 2026-05-07 23:44 | 1.35101 | 105.26983 | 16915 ft | 420 kts | 88° |
| 2026-05-07 23:44 | 1.35172 | 105.29910 | 17181 ft | 421 kts | 88° |
| 2026-05-07 23:44 | 1.35242 | 105.32842 | 17465 ft | 423 kts | 88° |
| 2026-05-07 23:44 | 1.35312 | 105.35782 | 17737 ft | 424 kts | 88° |
| 2026-05-07 23:45 | 1.35383 | 105.38737 | 17960 ft | 426 kts | 88° |
| 2026-05-07 23:45 | 1.35453 | 105.41699 | 18212 ft | 427 kts | 88° |
| 2026-05-07 23:45 | 1.35525 | 105.44713 | 18432 ft | 429 kts | 88° |
| 2026-05-07 23:45 | 1.35597 | 105.47697 | 18646 ft | 430 kts | 88° |
| 2026-05-07 23:46 | 1.35668 | 105.50691 | 18860 ft | 432 kts | 88° |
| 2026-05-07 23:46 | 1.35739 | 105.53691 | 19066 ft | 433 kts | 88° |
| 2026-05-07 23:46 | 1.35811 | 105.56706 | 19277 ft | 434 kts | 88° |
| 2026-05-07 23:46 | 1.35883 | 105.59729 | 19476 ft | 436 kts | 88° |
| 2026-05-07 23:47 | 1.35955 | 105.62758 | 19693 ft | 437 kts | 88° |
| 2026-05-07 23:47 | 1.36026 | 105.65764 | 19893 ft | 438 kts | 88° |
| 2026-05-07 23:47 | 1.36100 | 105.68812 | 20093 ft | 439 kts | 88° |
| 2026-05-07 23:47 | 1.36323 | 105.71851 | 20287 ft | 441 kts | 81° |
| 2026-05-07 23:48 | 1.37076 | 105.74833 | 20491 ft | 442 kts | 70° |
| 2026-05-07 23:48 | 1.38430 | 105.77594 | 20679 ft | 445 kts | 58° |
| 2026-05-07 23:48 | 1.40346 | 105.80028 | 20875 ft | 448 kts | 46° |
| 2026-05-07 23:48 | 1.42748 | 105.82024 | 21073 ft | 452 kts | 34° |
| 2026-05-07 23:49 | 1.45439 | 105.83644 | 21282 ft | 454 kts | 30° |
| 2026-05-07 23:49 | 1.48239 | 105.85132 | 21485 ft | 456 kts | 28° |
| 2026-05-07 23:49 | 1.51080 | 105.86559 | 21688 ft | 457 kts | 28° |
| 2026-05-07 23:49 | 1.53933 | 105.87971 | 21898 ft | 459 kts | 28° |
| 2026-05-07 23:50 | 1.56799 | 105.89400 | 22110 ft | 460 kts | 28° |
| 2026-05-07 23:50 | 1.59659 | 105.90844 | 22315 ft | 461 kts | 28° |
| 2026-05-07 23:50 | 1.62522 | 105.92307 | 22531 ft | 462 kts | 28° |
| 2026-05-07 23:50 | 1.65376 | 105.93777 | 22741 ft | 464 kts | 29° |
| 2026-05-07 23:51 | 1.68255 | 105.95267 | 22948 ft | 465 kts | 29° |
| 2026-05-07 23:51 | 1.71130 | 105.96757 | 23156 ft | 467 kts | 29° |
| 2026-05-07 23:51 | 1.74016 | 105.98254 | 23365 ft | 468 kts | 29° |
| 2026-05-07 23:51 | 1.76914 | 105.99757 | 23531 ft | 470 kts | 29° |
| 2026-05-07 23:52 | 1.79814 | 106.01259 | 23722 ft | 471 kts | 29° |
| 2026-05-07 23:52 | 1.82731 | 106.02770 | 23883 ft | 472 kts | 29° |
| 2026-05-07 23:52 | 1.85655 | 106.04284 | 24065 ft | 474 kts | 29° |
| 2026-05-07 23:52 | 1.88588 | 106.05803 | 24240 ft | 475 kts | 29° |
| 2026-05-07 23:53 | 1.91529 | 106.07326 | 24423 ft | 477 kts | 29° |
| 2026-05-07 23:53 | 1.94472 | 106.08851 | 24621 ft | 478 kts | 29° |
| 2026-05-07 23:53 | 1.97430 | 106.10381 | 24803 ft | 479 kts | 28° |
| 2026-05-07 23:53 | 2.00403 | 106.11917 | 25004 ft | 481 kts | 28° |
| 2026-05-07 23:54 | 2.03377 | 106.13454 | 25202 ft | 482 kts | 28° |
| 2026-05-07 23:54 | 2.06359 | 106.14995 | 25402 ft | 484 kts | 28° |
| 2026-05-07 23:54 | 2.09358 | 106.16546 | 25603 ft | 486 kts | 28° |
| 2026-05-07 23:54 | 2.12364 | 106.18101 | 25804 ft | 487 kts | 28° |
| 2026-05-07 23:55 | 2.15375 | 106.19658 | 26021 ft | 489 kts | 28° |
| 2026-05-07 23:55 | 2.18408 | 106.21227 | 26241 ft | 490 kts | 28° |
| 2026-05-07 23:55 | 2.21443 | 106.22797 | 26454 ft | 492 kts | 28° |
| 2026-05-07 23:55 | 2.24485 | 106.24371 | 26674 ft | 494 kts | 28° |
| 2026-05-07 23:56 | 2.27541 | 106.25951 | 26897 ft | 496 kts | 28° |
| 2026-05-07 23:56 | 2.30616 | 106.27543 | 27121 ft | 497 kts | 28° |
| 2026-05-07 23:56 | 2.33691 | 106.29134 | 27339 ft | 499 kts | 28° |
| 2026-05-07 23:56 | 2.36776 | 106.30730 | 27572 ft | 501 kts | 28° |
| 2026-05-07 23:57 | 2.39878 | 106.32335 | 27793 ft | 503 kts | 28° |
| 2026-05-07 23:57 | 2.42987 | 106.33944 | 28013 ft | 504 kts | 28° |
| 2026-05-07 23:57 | 2.46108 | 106.35559 | 28228 ft | 506 kts | 28° |
| 2026-05-07 23:57 | 2.49239 | 106.37180 | 28433 ft | 508 kts | 28° |
| 2026-05-07 23:58 | 2.52381 | 106.38807 | 28643 ft | 509 kts | 28° |
| 2026-05-07 23:58 | 2.55528 | 106.40436 | 28949 ft | 509 kts | 28° |
| 2026-05-07 23:58 | 2.58670 | 106.42064 | 29253 ft | 508 kts | 28° |
| 2026-05-07 23:58 | 2.61801 | 106.43685 | 29553 ft | 507 kts | 28° |
| 2026-05-07 23:59 | 2.64933 | 106.45305 | 29838 ft | 507 kts | 28° |
| 2026-05-07 23:59 | 2.68061 | 106.46924 | 30092 ft | 506 kts | 28° |
| 2026-05-07 23:59 | 2.71187 | 106.48542 | 30319 ft | 506 kts | 28° |
| 2026-05-07 23:59 | 2.74313 | 106.50160 | 30527 ft | 506 kts | 28° |
| 2026-05-08 00:00 | 2.77442 | 106.51785 | 30752 ft | 505 kts | 28° |
| 2026-05-08 00:00 | 2.80563 | 106.53402 | 30976 ft | 505 kts | 28° |
| 2026-05-08 00:00 | 2.83688 | 106.55019 | 31176 ft | 505 kts | 28° |
| 2026-05-08 00:00 | 2.86807 | 106.56635 | 31402 ft | 505 kts | 28° |
| 2026-05-08 00:01 | 2.89920 | 106.58247 | 31625 ft | 505 kts | 28° |
| 2026-05-08 00:01 | 2.93039 | 106.59859 | 31799 ft | 505 kts | 28° |
| 2026-05-08 00:01 | 2.99325 | 106.63106 | 31860 ft | 511 kts | 28° |
| 2026-05-08 00:02 | 3.05641 | 106.66372 | 31858 ft | 511 kts | 28° |
| 2026-05-08 00:02 | 3.11951 | 106.69638 | 31857 ft | 510 kts | 28° |
| 2026-05-08 00:03 | 3.18253 | 106.72901 | 31859 ft | 510 kts | 28° |
| 2026-05-08 00:03 | 3.24563 | 106.76169 | 31855 ft | 510 kts | 28° |
| 2026-05-08 00:04 | 3.30866 | 106.79433 | 31859 ft | 510 kts | 28° |
| 2026-05-08 00:04 | 3.37174 | 106.82701 | 31857 ft | 510 kts | 28° |
| 2026-05-08 00:05 | 3.43478 | 106.85967 | 31857 ft | 510 kts | 28° |
| 2026-05-08 00:05 | 3.49742 | 106.89213 | 31858 ft | 510 kts | 28° |
| 2026-05-08 00:06 | 3.56002 | 106.92566 | 31856 ft | 510 kts | 33° |
| 2026-05-08 00:06 | 3.61868 | 106.96532 | 31857 ft | 509 kts | 36° |
| 2026-05-08 00:07 | 3.67656 | 107.00615 | 31856 ft | 509 kts | 36° |
| 2026-05-08 00:07 | 3.73428 | 107.04715 | 31857 ft | 509 kts | 36° |
| 2026-05-08 00:08 | 3.79205 | 107.08806 | 31856 ft | 508 kts | 36° |
| 2026-05-08 00:08 | 3.84986 | 107.12891 | 31857 ft | 508 kts | 36° |
| 2026-05-08 00:09 | 3.90768 | 107.16975 | 31858 ft | 508 kts | 36° |
| 2026-05-08 00:09 | 3.96547 | 107.21058 | 31858 ft | 508 kts | 36° |
| 2026-05-08 00:10 | 4.02322 | 107.25139 | 31859 ft | 508 kts | 36° |
| 2026-05-08 00:10 | 4.08099 | 107.29222 | 31860 ft | 508 kts | 36° |
| 2026-05-08 00:11 | 4.13870 | 107.33303 | 31860 ft | 508 kts | 36° |
| 2026-05-08 00:11 | 4.19637 | 107.37381 | 31859 ft | 507 kts | 36° |
| 2026-05-08 00:12 | 4.25405 | 107.41460 | 31859 ft | 507 kts | 36° |
| 2026-05-08 00:12 | 4.31165 | 107.45535 | 31859 ft | 507 kts | 36° |
| 2026-05-08 00:13 | 4.36921 | 107.49607 | 31859 ft | 507 kts | 36° |
| 2026-05-08 00:13 | 4.42682 | 107.53684 | 31861 ft | 506 kts | 36° |
| 2026-05-08 00:14 | 4.48436 | 107.57756 | 31859 ft | 506 kts | 36° |
| 2026-05-08 00:14 | 4.54188 | 107.61828 | 31858 ft | 506 kts | 36° |
| 2026-05-08 00:15 | 4.59932 | 107.65895 | 31862 ft | 506 kts | 36° |
| 2026-05-08 00:15 | 4.65691 | 107.69974 | 31859 ft | 506 kts | 36° |
| 2026-05-08 00:16 | 4.71432 | 107.74041 | 31863 ft | 506 kts | 36° |
| 2026-05-08 00:16 | 4.77181 | 107.78114 | 31863 ft | 506 kts | 36° |
| 2026-05-08 00:17 | 4.81956 | 107.81497 | 31863 ft | 505 kts | 36° |
| 2026-05-08 00:17 | 4.87701 | 107.85569 | 31861 ft | 505 kts | 36° |
| 2026-05-08 00:18 | 4.93441 | 107.89638 | 31863 ft | 505 kts | 36° |
| 2026-05-08 00:18 | 4.99177 | 107.93706 | 31862 ft | 505 kts | 36° |
| 2026-05-08 00:19 | 5.04970 | 107.97791 | 31864 ft | 505 kts | 36° |
| 2026-05-08 00:19 | 5.10691 | 108.01798 | 31866 ft | 505 kts | 36° |
| 2026-05-08 00:20 | 5.16450 | 108.05837 | 31869 ft | 505 kts | 36° |
| 2026-05-08 00:20 | 5.22204 | 108.09878 | 31869 ft | 505 kts | 36° |
| 2026-05-08 00:21 | 5.27955 | 108.13921 | 31866 ft | 505 kts | 36° |
| 2026-05-08 00:21 | 5.33749 | 108.17996 | 31866 ft | 505 kts | 36° |
| 2026-05-08 00:22 | 5.39466 | 108.22016 | 31870 ft | 505 kts | 36° |
| 2026-05-08 00:22 | 5.45215 | 108.26060 | 31869 ft | 505 kts | 36° |
| 2026-05-08 00:23 | 5.50967 | 108.30107 | 31870 ft | 505 kts | 36° |
| 2026-05-08 00:23 | 5.56718 | 108.34154 | 31870 ft | 504 kts | 36° |
| 2026-05-08 00:24 | 5.62465 | 108.38200 | 31871 ft | 504 kts | 36° |
| 2026-05-08 00:24 | 5.68210 | 108.42245 | 31869 ft | 504 kts | 36° |
| 2026-05-08 00:25 | 5.73952 | 108.46289 | 31869 ft | 504 kts | 36° |
| 2026-05-08 00:25 | 5.79703 | 108.50341 | 31869 ft | 504 kts | 36° |
| 2026-05-08 00:26 | 5.85446 | 108.54387 | 31873 ft | 505 kts | 36° |
| 2026-05-08 00:26 | 5.91199 | 108.58442 | 31873 ft | 505 kts | 36° |
| 2026-05-08 00:27 | 5.96945 | 108.62493 | 31873 ft | 505 kts | 36° |
| 2026-05-08 00:27 | 6.02690 | 108.66544 | 31872 ft | 505 kts | 36° |
| 2026-05-08 00:28 | 6.08441 | 108.70601 | 31872 ft | 505 kts | 36° |
| 2026-05-08 00:28 | 6.14193 | 108.74659 | 31873 ft | 505 kts | 36° |
| 2026-05-08 00:29 | 6.19947 | 108.78721 | 31873 ft | 505 kts | 36° |
| 2026-05-08 00:29 | 6.25701 | 108.82782 | 31873 ft | 505 kts | 36° |
| 2026-05-08 00:30 | 6.31459 | 108.86848 | 31874 ft | 506 kts | 36° |
| 2026-05-08 00:30 | 6.37217 | 108.90915 | 31874 ft | 506 kts | 36° |
| 2026-05-08 00:31 | 6.42975 | 108.94983 | 31874 ft | 506 kts | 36° |
| 2026-05-08 00:31 | 6.48736 | 108.99054 | 31873 ft | 506 kts | 36° |
| 2026-05-08 00:32 | 6.54498 | 109.03128 | 31877 ft | 506 kts | 36° |
| 2026-05-08 00:32 | 6.60259 | 109.07201 | 31876 ft | 506 kts | 36° |
| 2026-05-08 00:33 | 6.66015 | 109.11272 | 31875 ft | 506 kts | 35° |
| 2026-05-08 00:33 | 6.71775 | 109.15348 | 31877 ft | 506 kts | 35° |
| 2026-05-08 00:34 | 6.77532 | 109.19422 | 31875 ft | 505 kts | 35° |
| 2026-05-08 00:34 | 6.83279 | 109.23491 | 31876 ft | 505 kts | 35° |
| 2026-05-08 00:35 | 6.89032 | 109.27566 | 31878 ft | 506 kts | 35° |
| 2026-05-08 00:35 | 6.94790 | 109.31644 | 31879 ft | 506 kts | 35° |
| 2026-05-08 00:36 | 7.00547 | 109.35724 | 31879 ft | 506 kts | 35° |
| 2026-05-08 00:36 | 7.06298 | 109.39800 | 31879 ft | 506 kts | 35° |
| 2026-05-08 00:37 | 7.12048 | 109.43877 | 31883 ft | 506 kts | 35° |
| 2026-05-08 00:38 | 7.20675 | 109.49997 | 31882 ft | 506 kts | 35° |
| 2026-05-08 00:38 | 7.26432 | 109.54082 | 31880 ft | 506 kts | 35° |
| 2026-05-08 00:39 | 7.32179 | 109.58161 | 31880 ft | 505 kts | 35° |
| 2026-05-08 00:39 | 7.37926 | 109.62242 | 31881 ft | 505 kts | 35° |
| 2026-05-08 00:40 | 7.43668 | 109.66320 | 31881 ft | 505 kts | 35° |
| 2026-05-08 00:40 | 7.49408 | 109.70399 | 31880 ft | 505 kts | 35° |
| 2026-05-08 00:41 | 7.55146 | 109.74477 | 31887 ft | 504 kts | 35° |
| 2026-05-08 00:41 | 7.60879 | 109.78553 | 31884 ft | 504 kts | 35° |
| 2026-05-08 00:42 | 7.66574 | 109.82604 | 31883 ft | 504 kts | 35° |
| 2026-05-08 00:42 | 7.72306 | 109.86681 | 31884 ft | 504 kts | 35° |
| 2026-05-08 00:43 | 7.78025 | 109.90752 | 31885 ft | 504 kts | 35° |
| 2026-05-08 00:43 | 7.83758 | 109.94833 | 31884 ft | 504 kts | 35° |
| 2026-05-08 00:44 | 7.89482 | 109.98911 | 31883 ft | 503 kts | 35° |
| 2026-05-08 00:44 | 7.95199 | 110.02983 | 31883 ft | 503 kts | 35° |
| 2026-05-08 00:45 | 8.00918 | 110.07059 | 31880 ft | 503 kts | 35° |
| 2026-05-08 00:45 | 8.06640 | 110.11139 | 31882 ft | 503 kts | 35° |
| 2026-05-08 00:46 | 8.12357 | 110.15216 | 31883 ft | 503 kts | 35° |
| 2026-05-08 00:46 | 8.18070 | 110.19292 | 31885 ft | 503 kts | 35° |
| 2026-05-08 00:47 | 8.23780 | 110.23372 | 31884 ft | 503 kts | 35° |
| 2026-05-08 00:47 | 8.29478 | 110.27473 | 31884 ft | 502 kts | 35° |
| 2026-05-08 00:48 | 8.35166 | 110.31578 | 31885 ft | 502 kts | 35° |
| 2026-05-08 00:48 | 8.40862 | 110.35685 | 31883 ft | 502 kts | 35° |
| 2026-05-08 00:49 | 8.46545 | 110.39782 | 31882 ft | 502 kts | 35° |
| 2026-05-08 00:49 | 8.52237 | 110.43887 | 31883 ft | 502 kts | 35° |
| 2026-05-08 00:50 | 8.57924 | 110.47990 | 31884 ft | 502 kts | 35° |
| 2026-05-08 00:50 | 8.63608 | 110.52091 | 31885 ft | 502 kts | 35° |
| 2026-05-08 00:51 | 8.69290 | 110.56193 | 31887 ft | 502 kts | 35° |
| 2026-05-08 00:51 | 8.74971 | 110.60296 | 31888 ft | 502 kts | 35° |
| 2026-05-08 00:52 | 8.80651 | 110.64400 | 31887 ft | 502 kts | 35° |
| 2026-05-08 00:52 | 8.86330 | 110.68504 | 31885 ft | 502 kts | 35° |
| 2026-05-08 00:53 | 8.92011 | 110.72611 | 31887 ft | 502 kts | 34° |
| 2026-05-08 00:53 | 8.97691 | 110.76721 | 31887 ft | 502 kts | 34° |
| 2026-05-08 00:54 | 9.03382 | 110.80838 | 31888 ft | 502 kts | 34° |
| 2026-05-08 00:54 | 9.09063 | 110.84950 | 31888 ft | 502 kts | 34° |
| 2026-05-08 00:55 | 9.14746 | 110.89066 | 31889 ft | 502 kts | 34° |
| 2026-05-08 00:55 | 9.20433 | 110.93186 | 31896 ft | 503 kts | 34° |
| 2026-05-08 00:56 | 9.26116 | 110.97305 | 31893 ft | 503 kts | 34° |
| 2026-05-08 00:56 | 9.30850 | 111.00738 | 31894 ft | 503 kts | 34° |
| 2026-05-08 00:57 | 9.36534 | 111.04860 | 31892 ft | 503 kts | 34° |
| 2026-05-08 00:57 | 9.42226 | 111.08991 | 31895 ft | 503 kts | 34° |
| 2026-05-08 00:58 | 9.47921 | 111.13125 | 31889 ft | 503 kts | 34° |
| 2026-05-08 00:58 | 9.53612 | 111.17259 | 31888 ft | 503 kts | 34° |
| 2026-05-08 00:59 | 9.59305 | 111.21396 | 31889 ft | 504 kts | 34° |
| 2026-05-08 00:59 | 9.65000 | 111.25534 | 31889 ft | 504 kts | 34° |
| 2026-05-08 01:00 | 9.70699 | 111.29677 | 31891 ft | 504 kts | 34° |
| 2026-05-08 01:00 | 9.76388 | 111.33816 | 31891 ft | 504 kts | 34° |
| 2026-05-08 01:01 | 9.82085 | 111.37962 | 31893 ft | 504 kts | 34° |
| 2026-05-08 01:01 | 9.87775 | 111.42105 | 31892 ft | 504 kts | 34° |
| 2026-05-08 01:02 | 9.93468 | 111.46252 | 31891 ft | 503 kts | 34° |
| 2026-05-08 01:02 | 9.99154 | 111.50396 | 31892 ft | 503 kts | 34° |
| 2026-05-08 01:03 | 10.04844 | 111.54544 | 31890 ft | 503 kts | 34° |
| 2026-05-08 01:03 | 10.10530 | 111.58691 | 31891 ft | 503 kts | 34° |
| 2026-05-08 01:04 | 10.16215 | 111.62840 | 31891 ft | 503 kts | 34° |
| 2026-05-08 01:04 | 10.21902 | 111.66992 | 31892 ft | 503 kts | 34° |
| 2026-05-08 01:05 | 10.27584 | 111.71142 | 31896 ft | 503 kts | 34° |
| 2026-05-08 01:05 | 10.33260 | 111.75290 | 31893 ft | 503 kts | 34° |
| 2026-05-08 01:06 | 10.38945 | 111.79445 | 31889 ft | 503 kts | 34° |
| 2026-05-08 01:06 | 10.44625 | 111.83600 | 31895 ft | 503 kts | 34° |
| 2026-05-08 01:07 | 10.50309 | 111.87759 | 31890 ft | 503 kts | 34° |
| 2026-05-08 01:07 | 10.55993 | 111.91920 | 31890 ft | 503 kts | 34° |
| 2026-05-08 01:08 | 10.61669 | 111.96077 | 31892 ft | 503 kts | 34° |
| 2026-05-08 01:08 | 10.67336 | 112.00228 | 31893 ft | 503 kts | 34° |
| 2026-05-08 01:09 | 10.73020 | 112.04396 | 31894 ft | 503 kts | 34° |
| 2026-05-08 01:09 | 10.78690 | 112.08555 | 31892 ft | 502 kts | 34° |
| 2026-05-08 01:10 | 10.84357 | 112.12713 | 31894 ft | 502 kts | 34° |
| 2026-05-08 01:10 | 10.90018 | 112.16869 | 31892 ft | 502 kts | 34° |
| 2026-05-08 01:11 | 10.95679 | 112.21028 | 31895 ft | 502 kts | 34° |
| 2026-05-08 01:11 | 11.01344 | 112.25180 | 31895 ft | 502 kts | 34° |
| 2026-05-08 01:12 | 11.07017 | 112.29320 | 31894 ft | 502 kts | 34° |
| 2026-05-08 01:12 | 11.12696 | 112.33470 | 31895 ft | 502 kts | 34° |
| 2026-05-08 01:13 | 11.18361 | 112.37617 | 31892 ft | 502 kts | 34° |
| 2026-05-08 01:13 | 11.24024 | 112.41765 | 31893 ft | 502 kts | 34° |
| 2026-05-08 01:14 | 11.29690 | 112.45917 | 31894 ft | 501 kts | 34° |
| 2026-05-08 01:14 | 11.35315 | 112.50042 | 31895 ft | 501 kts | 34° |
| 2026-05-08 01:15 | 11.41013 | 112.54222 | 31894 ft | 501 kts | 34° |
| 2026-05-08 01:15 | 11.46641 | 112.58353 | 31894 ft | 502 kts | 34° |
| 2026-05-08 01:16 | 11.52299 | 112.62522 | 31895 ft | 502 kts | 34° |
| 2026-05-08 01:16 | 11.57959 | 112.66690 | 31896 ft | 502 kts | 34° |
| 2026-05-08 01:17 | 11.63620 | 112.70861 | 31893 ft | 501 kts | 34° |
| 2026-05-08 01:17 | 11.69272 | 112.75029 | 31894 ft | 502 kts | 34° |
| 2026-05-08 01:18 | 11.74926 | 112.79201 | 31897 ft | 502 kts | 34° |
| 2026-05-08 01:18 | 11.80589 | 112.83382 | 31894 ft | 502 kts | 34° |
| 2026-05-08 01:19 | 11.86243 | 112.87559 | 31893 ft | 501 kts | 35° |
| 2026-05-08 01:19 | 11.91889 | 112.91732 | 31895 ft | 501 kts | 35° |
| 2026-05-08 01:20 | 11.97541 | 112.95911 | 31895 ft | 501 kts | 35° |
| 2026-05-08 01:20 | 12.03194 | 113.00094 | 31896 ft | 501 kts | 35° |
| 2026-05-08 01:21 | 12.08845 | 113.04276 | 31896 ft | 502 kts | 35° |
| 2026-05-08 01:21 | 12.14488 | 113.08456 | 31899 ft | 502 kts | 35° |
| 2026-05-08 01:22 | 12.20138 | 113.12642 | 31895 ft | 502 kts | 35° |
| 2026-05-08 01:22 | 12.25789 | 113.16832 | 31895 ft | 502 kts | 35° |
| 2026-05-08 01:23 | 12.31436 | 113.21022 | 31895 ft | 501 kts | 35° |
| 2026-05-08 01:23 | 12.37082 | 113.25213 | 31897 ft | 501 kts | 35° |
| 2026-05-08 01:24 | 12.42722 | 113.29404 | 31898 ft | 501 kts | 35° |
| 2026-05-08 01:24 | 12.48379 | 113.33592 | 31899 ft | 501 kts | 35° |
| 2026-05-08 01:25 | 12.54026 | 113.37776 | 31895 ft | 501 kts | 35° |
| 2026-05-08 01:25 | 12.59675 | 113.41968 | 31897 ft | 501 kts | 35° |
| 2026-05-08 01:26 | 12.65314 | 113.46156 | 31897 ft | 501 kts | 35° |
| 2026-05-08 01:26 | 12.70995 | 113.50378 | 31902 ft | 501 kts | 35° |
| 2026-05-08 01:27 | 12.76635 | 113.54572 | 31901 ft | 501 kts | 35° |
| 2026-05-08 01:27 | 12.82275 | 113.58767 | 31901 ft | 501 kts | 35° |
| 2026-05-08 01:28 | 12.87914 | 113.62965 | 31902 ft | 501 kts | 35° |
| 2026-05-08 01:28 | 12.93554 | 113.67166 | 31900 ft | 501 kts | 35° |
| 2026-05-08 01:29 | 12.99185 | 113.71362 | 31903 ft | 501 kts | 35° |
| 2026-05-08 01:29 | 13.04824 | 113.75567 | 31902 ft | 501 kts | 35° |
| 2026-05-08 01:30 | 13.10455 | 113.79769 | 31903 ft | 501 kts | 35° |
| 2026-05-08 01:30 | 13.16087 | 113.83973 | 31903 ft | 501 kts | 35° |
| 2026-05-08 01:31 | 13.21721 | 113.88182 | 31903 ft | 500 kts | 35° |
| 2026-05-08 01:31 | 13.27353 | 113.92391 | 31903 ft | 500 kts | 35° |
| 2026-05-08 01:32 | 13.32977 | 113.96597 | 31902 ft | 500 kts | 35° |
| 2026-05-08 01:32 | 13.38600 | 114.00805 | 31902 ft | 500 kts | 35° |
| 2026-05-08 01:33 | 13.44217 | 114.05011 | 31906 ft | 500 kts | 35° |
| 2026-05-08 01:33 | 13.49842 | 114.09224 | 31907 ft | 500 kts | 35° |
| 2026-05-08 01:34 | 13.55465 | 114.13440 | 31905 ft | 500 kts | 35° |
| 2026-05-08 01:34 | 13.61078 | 114.17649 | 31906 ft | 500 kts | 35° |
| 2026-05-08 01:35 | 13.66666 | 114.21844 | 31907 ft | 500 kts | 35° |
| 2026-05-08 01:35 | 13.72279 | 114.26058 | 31904 ft | 500 kts | 35° |
| 2026-05-08 01:36 | 13.77893 | 114.30277 | 31909 ft | 500 kts | 35° |
| 2026-05-08 01:36 | 13.83504 | 114.34496 | 31908 ft | 500 kts | 35° |
| 2026-05-08 01:37 | 13.89115 | 114.38718 | 31907 ft | 500 kts | 35° |
| 2026-05-08 01:37 | 13.93808 | 114.42250 | 31907 ft | 500 kts | 35° |
| 2026-05-08 01:37 | 13.96577 | 114.44432 | 32066 ft | 498 kts | 40° |
| 2026-05-08 01:38 | 13.99082 | 114.46876 | 32465 ft | 494 kts | 44° |
| 2026-05-08 01:38 | 14.01483 | 114.49392 | 32843 ft | 491 kts | 45° |
| 2026-05-08 01:38 | 14.03840 | 114.51922 | 33123 ft | 490 kts | 45° |
| 2026-05-08 01:38 | 14.06185 | 114.54474 | 33369 ft | 489 kts | 46° |
| 2026-05-08 01:39 | 14.08515 | 114.57023 | 33622 ft | 488 kts | 46° |
| 2026-05-08 01:39 | 14.10834 | 114.59564 | 33854 ft | 487 kts | 46° |
| 2026-05-08 01:39 | 14.13155 | 114.62104 | 34076 ft | 486 kts | 46° |
| 2026-05-08 01:39 | 14.15474 | 114.64638 | 34252 ft | 486 kts | 45° |
| 2026-05-08 01:40 | 14.17760 | 114.67135 | 34433 ft | 485 kts | 45° |
| 2026-05-08 01:40 | 14.20107 | 114.69696 | 34610 ft | 485 kts | 45° |
| 2026-05-08 01:40 | 14.22421 | 114.72221 | 34764 ft | 485 kts | 45° |
| 2026-05-08 01:40 | 14.24705 | 114.74713 | 34884 ft | 485 kts | 45° |
| 2026-05-08 01:41 | 14.27033 | 114.77255 | 34924 ft | 489 kts | 45° |
| 2026-05-08 01:41 | 14.31719 | 114.82373 | 34911 ft | 491 kts | 45° |
| 2026-05-08 01:42 | 14.36401 | 114.87493 | 34908 ft | 490 kts | 45° |
| 2026-05-08 01:42 | 14.41080 | 114.92613 | 34927 ft | 490 kts | 45° |
| 2026-05-08 01:43 | 14.45762 | 114.97739 | 34908 ft | 491 kts | 45° |
| 2026-05-08 01:43 | 14.50443 | 115.02867 | 34927 ft | 491 kts | 45° |
| 2026-05-08 01:44 | 14.55122 | 115.07997 | 34908 ft | 491 kts | 45° |
| 2026-05-08 01:44 | 14.59806 | 115.13135 | 34915 ft | 491 kts | 45° |
| 2026-05-08 01:45 | 14.64484 | 115.18270 | 34925 ft | 491 kts | 45° |
| 2026-05-08 01:45 | 14.69169 | 115.23416 | 34910 ft | 492 kts | 45° |
| 2026-05-08 01:46 | 14.73855 | 115.28567 | 34929 ft | 492 kts | 45° |
| 2026-05-08 01:46 | 14.78547 | 115.33727 | 34914 ft | 492 kts | 46° |
| 2026-05-08 01:47 | 14.83236 | 115.38888 | 34926 ft | 492 kts | 45° |
| 2026-05-08 01:47 | 14.87922 | 115.44050 | 34909 ft | 493 kts | 45° |
| 2026-05-08 01:48 | 14.94963 | 115.51811 | 34915 ft | 493 kts | 45° |
| 2026-05-08 01:48 | 14.99651 | 115.56983 | 34934 ft | 493 kts | 45° |
| 2026-05-08 01:49 | 15.04343 | 115.62164 | 34912 ft | 493 kts | 45° |
| 2026-05-08 01:49 | 15.09028 | 115.67341 | 34933 ft | 493 kts | 45° |
| 2026-05-08 01:50 | 15.13728 | 115.72536 | 34922 ft | 494 kts | 45° |
| 2026-05-08 01:50 | 15.18417 | 115.77724 | 34928 ft | 494 kts | 45° |
| 2026-05-08 01:51 | 15.23111 | 115.82921 | 34918 ft | 494 kts | 45° |
| 2026-05-08 01:51 | 15.27807 | 115.88124 | 34919 ft | 494 kts | 45° |
| 2026-05-08 01:52 | 15.32495 | 115.93322 | 34919 ft | 494 kts | 45° |
| 2026-05-08 01:52 | 15.37188 | 115.98529 | 34920 ft | 494 kts | 45° |
| 2026-05-08 01:53 | 15.41883 | 116.03742 | 34922 ft | 494 kts | 45° |
| 2026-05-08 01:53 | 15.46574 | 116.08954 | 34927 ft | 494 kts | 45° |
| 2026-05-08 01:54 | 15.51265 | 116.14169 | 34920 ft | 495 kts | 45° |
| 2026-05-08 01:54 | 15.55961 | 116.19394 | 34921 ft | 495 kts | 45° |
| 2026-05-08 01:55 | 15.60649 | 116.24614 | 34923 ft | 495 kts | 45° |
| 2026-05-08 01:55 | 15.65341 | 116.29842 | 34924 ft | 495 kts | 45° |
| 2026-05-08 01:56 | 15.70030 | 116.35071 | 34924 ft | 495 kts | 45° |
| 2026-05-08 01:56 | 15.74716 | 116.40300 | 34923 ft | 495 kts | 45° |
| 2026-05-08 01:57 | 15.79403 | 116.45534 | 34927 ft | 495 kts | 46° |
| 2026-05-08 01:57 | 15.84092 | 116.50773 | 34923 ft | 495 kts | 45° |
| 2026-05-08 01:58 | 15.88782 | 116.56018 | 34926 ft | 495 kts | 45° |
| 2026-05-08 01:58 | 15.93470 | 116.61265 | 34923 ft | 495 kts | 46° |
| 2026-05-08 01:59 | 15.98154 | 116.66510 | 34925 ft | 495 kts | 45° |
| 2026-05-08 01:59 | 16.02835 | 116.71756 | 34928 ft | 495 kts | 45° |
| 2026-05-08 02:00 | 16.07520 | 116.77011 | 34927 ft | 495 kts | 45° |
| 2026-05-08 02:00 | 16.12205 | 116.82270 | 34928 ft | 495 kts | 46° |
| 2026-05-08 02:01 | 16.16884 | 116.87526 | 34924 ft | 495 kts | 46° |
| 2026-05-08 02:01 | 16.21563 | 116.92786 | 34923 ft | 495 kts | 46° |
| 2026-05-08 02:02 | 16.26235 | 116.98042 | 34920 ft | 495 kts | 46° |
| 2026-05-08 02:02 | 16.30905 | 117.03299 | 34927 ft | 495 kts | 46° |
| 2026-05-08 02:03 | 16.35570 | 117.08556 | 34926 ft | 494 kts | 46° |
| 2026-05-08 02:03 | 16.40236 | 117.13817 | 34932 ft | 494 kts | 46° |
| 2026-05-08 02:04 | 16.44903 | 117.19082 | 34926 ft | 494 kts | 46° |
| 2026-05-08 02:04 | 16.49564 | 117.24344 | 34926 ft | 494 kts | 46° |
| 2026-05-08 02:05 | 16.54221 | 117.29608 | 34927 ft | 494 kts | 46° |
| 2026-05-08 02:05 | 16.58873 | 117.34871 | 34926 ft | 494 kts | 46° |
| 2026-05-08 02:06 | 16.63525 | 117.40138 | 34924 ft | 493 kts | 46° |
| 2026-05-08 02:06 | 16.68172 | 117.45402 | 34925 ft | 493 kts | 46° |
| 2026-05-08 02:07 | 16.72818 | 117.50669 | 34923 ft | 493 kts | 46° |
| 2026-05-08 02:07 | 16.77465 | 117.55941 | 34927 ft | 493 kts | 46° |
| 2026-05-08 02:08 | 16.82104 | 117.61210 | 34922 ft | 493 kts | 46° |
| 2026-05-08 02:08 | 16.86738 | 117.66476 | 34929 ft | 493 kts | 46° |
| 2026-05-08 02:09 | 16.91372 | 117.71745 | 34930 ft | 492 kts | 46° |
| 2026-05-08 02:09 | 16.96001 | 117.77013 | 34928 ft | 492 kts | 46° |
| 2026-05-08 02:10 | 17.00632 | 117.82289 | 34926 ft | 492 kts | 46° |
| 2026-05-08 02:10 | 17.05262 | 117.87567 | 34925 ft | 493 kts | 46° |
| 2026-05-08 02:11 | 17.09887 | 117.92844 | 34928 ft | 493 kts | 46° |
| 2026-05-08 02:11 | 17.14518 | 117.98131 | 34925 ft | 493 kts | 46° |
| 2026-05-08 02:12 | 17.19149 | 118.03423 | 34927 ft | 493 kts | 46° |
| 2026-05-08 02:12 | 17.23785 | 118.08724 | 34923 ft | 493 kts | 46° |
| 2026-05-08 02:13 | 17.28417 | 118.14026 | 34923 ft | 494 kts | 46° |
| 2026-05-08 02:13 | 17.33048 | 118.19330 | 34925 ft | 494 kts | 46° |
| 2026-05-08 02:14 | 17.37676 | 118.24635 | 34926 ft | 494 kts | 46° |
| 2026-05-08 02:14 | 17.42312 | 118.29953 | 34927 ft | 494 kts | 46° |
| 2026-05-08 02:15 | 17.46942 | 118.35270 | 34928 ft | 494 kts | 46° |
| 2026-05-08 02:15 | 17.51572 | 118.40591 | 34927 ft | 494 kts | 46° |
| 2026-05-08 02:16 | 17.55458 | 118.45060 | 34926 ft | 495 kts | 46° |
| 2026-05-08 02:16 | 17.60089 | 118.50390 | 34924 ft | 495 kts | 46° |
| 2026-05-08 02:17 | 17.64724 | 118.55729 | 34924 ft | 495 kts | 46° |
| 2026-05-08 02:17 | 17.69359 | 118.61072 | 34925 ft | 495 kts | 46° |
| 2026-05-08 02:18 | 17.73956 | 118.66375 | 34925 ft | 495 kts | 46° |
| 2026-05-08 02:18 | 17.78620 | 118.71760 | 34925 ft | 495 kts | 46° |
| 2026-05-08 02:19 | 17.83247 | 118.77107 | 34926 ft | 495 kts | 46° |
| 2026-05-08 02:19 | 17.87881 | 118.82467 | 34927 ft | 495 kts | 46° |
| 2026-05-08 02:20 | 17.92476 | 118.87786 | 34923 ft | 495 kts | 46° |
| 2026-05-08 02:20 | 17.97103 | 118.93147 | 34925 ft | 495 kts | 46° |
| 2026-05-08 02:21 | 18.01731 | 118.98509 | 34922 ft | 495 kts | 46° |
| 2026-05-08 02:21 | 18.06349 | 119.03869 | 34922 ft | 495 kts | 46° |
| 2026-05-08 02:22 | 18.10966 | 119.09236 | 34925 ft | 495 kts | 46° |
| 2026-05-08 02:22 | 18.15590 | 119.14613 | 34924 ft | 495 kts | 46° |
| 2026-05-08 02:23 | 18.20207 | 119.19985 | 34925 ft | 495 kts | 46° |
| 2026-05-08 02:23 | 18.24829 | 119.25367 | 34925 ft | 495 kts | 46° |
| 2026-05-08 02:24 | 18.29446 | 119.30748 | 34926 ft | 495 kts | 46° |
| 2026-05-08 02:24 | 18.34057 | 119.36126 | 34925 ft | 495 kts | 46° |
| 2026-05-08 02:25 | 18.38665 | 119.41508 | 34923 ft | 495 kts | 46° |
| 2026-05-08 02:25 | 18.43278 | 119.46899 | 34924 ft | 496 kts | 46° |
| 2026-05-08 02:26 | 18.47897 | 119.52301 | 34922 ft | 496 kts | 46° |
| 2026-05-08 02:26 | 18.52513 | 119.57705 | 34921 ft | 496 kts | 46° |
| 2026-05-08 02:27 | 18.57127 | 119.63110 | 34925 ft | 496 kts | 46° |
| 2026-05-08 02:27 | 18.61736 | 119.68519 | 34923 ft | 496 kts | 46° |
| 2026-05-08 02:28 | 18.66349 | 119.73934 | 34924 ft | 496 kts | 46° |
| 2026-05-08 02:28 | 18.70958 | 119.79346 | 34923 ft | 496 kts | 46° |
| 2026-05-08 02:29 | 18.75574 | 119.84771 | 34924 ft | 497 kts | 46° |
| 2026-05-08 02:29 | 18.80187 | 119.90201 | 34924 ft | 497 kts | 46° |
| 2026-05-08 02:30 | 18.84797 | 119.95630 | 34926 ft | 497 kts | 46° |
| 2026-05-08 02:30 | 18.89408 | 120.01066 | 34923 ft | 497 kts | 46° |
| 2026-05-08 02:31 | 18.94008 | 120.06495 | 34925 ft | 497 kts | 46° |
| 2026-05-08 02:31 | 18.98592 | 120.11910 | 34926 ft | 497 kts | 46° |
| 2026-05-08 02:32 | 19.03208 | 120.17364 | 34929 ft | 497 kts | 46° |
| 2026-05-08 02:32 | 19.07813 | 120.22811 | 34929 ft | 497 kts | 46° |
| 2026-05-08 02:33 | 19.12423 | 120.28273 | 34928 ft | 497 kts | 46° |
| 2026-05-08 02:33 | 19.17029 | 120.33734 | 34926 ft | 498 kts | 46° |
| 2026-05-08 02:34 | 19.21634 | 120.39198 | 34930 ft | 498 kts | 46° |
| 2026-05-08 02:34 | 19.26247 | 120.44674 | 34931 ft | 498 kts | 46° |
| 2026-05-08 02:35 | 19.30853 | 120.50148 | 34931 ft | 498 kts | 46° |
| 2026-05-08 02:35 | 19.35462 | 120.55631 | 34931 ft | 498 kts | 46° |
| 2026-05-08 02:36 | 19.40071 | 120.61120 | 34936 ft | 499 kts | 46° |
| 2026-05-08 02:36 | 19.44679 | 120.66619 | 34937 ft | 499 kts | 46° |
| 2026-05-08 02:37 | 19.49290 | 120.72117 | 34938 ft | 499 kts | 46° |
| 2026-05-08 02:37 | 19.53904 | 120.77624 | 34939 ft | 499 kts | 46° |
| 2026-05-08 02:38 | 19.58511 | 120.83128 | 34939 ft | 499 kts | 46° |
| 2026-05-08 02:38 | 19.63118 | 120.88641 | 34938 ft | 500 kts | 46° |
| 2026-05-08 02:39 | 19.67728 | 120.94161 | 34939 ft | 500 kts | 46° |
| 2026-05-08 02:39 | 19.72342 | 120.99692 | 34940 ft | 500 kts | 46° |
| 2026-05-08 02:40 | 19.76957 | 121.05229 | 34944 ft | 500 kts | 46° |
| 2026-05-08 02:40 | 19.81562 | 121.10760 | 34943 ft | 500 kts | 46° |
| 2026-05-08 02:41 | 19.86172 | 121.16302 | 34946 ft | 501 kts | 46° |
| 2026-05-08 02:41 | 19.90783 | 121.21849 | 34948 ft | 501 kts | 46° |
| 2026-05-08 02:42 | 19.95389 | 121.27397 | 34947 ft | 501 kts | 46° |
| 2026-05-08 02:42 | 20.00002 | 121.32958 | 34948 ft | 501 kts | 46° |
| 2026-05-08 02:43 | 20.04616 | 121.38526 | 34951 ft | 501 kts | 46° |
| 2026-05-08 02:43 | 20.09227 | 121.44095 | 34951 ft | 501 kts | 46° |
| 2026-05-08 02:44 | 20.13834 | 121.49665 | 34953 ft | 502 kts | 46° |
| 2026-05-08 02:44 | 20.18446 | 121.55247 | 34956 ft | 502 kts | 46° |
| 2026-05-08 02:45 | 20.23022 | 121.60791 | 34959 ft | 502 kts | 46° |
| 2026-05-08 02:45 | 20.27631 | 121.66380 | 34958 ft | 502 kts | 46° |
| 2026-05-08 02:46 | 20.32241 | 121.71974 | 34959 ft | 502 kts | 46° |
| 2026-05-08 02:46 | 20.36849 | 121.77573 | 34957 ft | 503 kts | 46° |
| 2026-05-08 02:47 | 20.41456 | 121.83176 | 34959 ft | 503 kts | 46° |
| 2026-05-08 02:47 | 20.46067 | 121.88789 | 34963 ft | 503 kts | 46° |
| 2026-05-08 02:48 | 20.50681 | 121.94411 | 34964 ft | 503 kts | 46° |
| 2026-05-08 02:48 | 20.55291 | 122.00035 | 34967 ft | 504 kts | 46° |
| 2026-05-08 02:49 | 20.59906 | 122.05669 | 34966 ft | 504 kts | 46° |
| 2026-05-08 02:49 | 20.64519 | 122.11307 | 34967 ft | 504 kts | 46° |
| 2026-05-08 02:50 | 20.69134 | 122.16953 | 34966 ft | 505 kts | 46° |
| 2026-05-08 02:50 | 20.73756 | 122.22613 | 34966 ft | 505 kts | 46° |
| 2026-05-08 02:51 | 20.78373 | 122.28273 | 34968 ft | 506 kts | 46° |
| 2026-05-08 02:51 | 20.82995 | 122.33945 | 34967 ft | 506 kts | 46° |
| 2026-05-08 02:52 | 20.87615 | 122.39619 | 34972 ft | 506 kts | 46° |
| 2026-05-08 02:52 | 20.92235 | 122.45301 | 34971 ft | 506 kts | 46° |
| 2026-05-08 02:53 | 20.96854 | 122.51000 | 34972 ft | 507 kts | 46° |
| 2026-05-08 02:53 | 21.01935 | 122.56146 | 34979 ft | 501 kts | 32° |
| 2026-05-08 02:54 | 21.07703 | 122.60332 | 34973 ft | 501 kts | 30° |
| 2026-05-08 02:54 | 21.13571 | 122.64379 | 34977 ft | 501 kts | 30° |
| 2026-05-08 02:55 | 21.22367 | 122.70452 | 34976 ft | 502 kts | 30° |
| 2026-05-08 02:56 | 21.28228 | 122.74532 | 34974 ft | 502 kts | 30° |
| 2026-05-08 02:56 | 21.34080 | 122.78617 | 34979 ft | 502 kts | 30° |
| 2026-05-08 02:57 | 21.39933 | 122.82706 | 34978 ft | 502 kts | 30° |
| 2026-05-08 02:57 | 21.45787 | 122.86799 | 34981 ft | 502 kts | 30° |
| 2026-05-08 02:58 | 21.51615 | 122.90877 | 34981 ft | 503 kts | 30° |
| 2026-05-08 02:58 | 21.57476 | 122.94982 | 34980 ft | 503 kts | 30° |
| 2026-05-08 02:59 | 21.63334 | 122.99089 | 34981 ft | 503 kts | 30° |
| 2026-05-08 02:59 | 21.68247 | 123.02537 | 34981 ft | 503 kts | 30° |
| 2026-05-08 03:00 | 21.74101 | 123.06649 | 34980 ft | 503 kts | 30° |
| 2026-05-08 03:00 | 21.79960 | 123.10769 | 34980 ft | 503 kts | 30° |
| 2026-05-08 03:01 | 21.85828 | 123.14898 | 34985 ft | 503 kts | 30° |
| 2026-05-08 03:01 | 21.91690 | 123.19028 | 34988 ft | 504 kts | 30° |
| 2026-05-08 03:02 | 21.97547 | 123.23158 | 34985 ft | 504 kts | 30° |
| 2026-05-08 03:02 | 22.03418 | 123.27302 | 34988 ft | 504 kts | 30° |
| 2026-05-08 03:03 | 22.09244 | 123.31419 | 34986 ft | 504 kts | 30° |
| 2026-05-08 03:03 | 22.15108 | 123.35567 | 34990 ft | 504 kts | 30° |
| 2026-05-08 03:04 | 22.20969 | 123.39716 | 34989 ft | 504 kts | 30° |
| 2026-05-08 03:04 | 22.26832 | 123.43872 | 34995 ft | 504 kts | 30° |
| 2026-05-08 03:05 | 22.32697 | 123.48033 | 34993 ft | 504 kts | 30° |
| 2026-05-08 03:05 | 22.38601 | 123.52226 | 34990 ft | 504 kts | 30° |
| 2026-05-08 03:06 | 22.44463 | 123.56394 | 34994 ft | 505 kts | 30° |
| 2026-05-08 03:06 | 22.50327 | 123.60567 | 34990 ft | 505 kts | 30° |
| 2026-05-08 03:07 | 22.56196 | 123.64748 | 34984 ft | 505 kts | 30° |
| 2026-05-08 03:07 | 22.62065 | 123.68933 | 35001 ft | 505 kts | 30° |
| 2026-05-08 03:08 | 22.67896 | 123.73096 | 34991 ft | 505 kts | 30° |
| 2026-05-08 03:08 | 22.73768 | 123.77292 | 34993 ft | 505 kts | 30° |
| 2026-05-08 03:09 | 22.79637 | 123.81491 | 34994 ft | 506 kts | 30° |
| 2026-05-08 03:09 | 22.85512 | 123.85705 | 34996 ft | 506 kts | 30° |
| 2026-05-08 03:10 | 22.91387 | 123.89913 | 35000 ft | 506 kts | 30° |
| 2026-05-08 03:10 | 22.97259 | 123.94124 | 35000 ft | 506 kts | 30° |
| 2026-05-08 03:11 | 23.03130 | 123.98357 | 34997 ft | 507 kts | 30° |
| 2026-05-08 03:11 | 23.09009 | 124.02691 | 34994 ft | 507 kts | 31° |
| 2026-05-08 03:12 | 23.14809 | 124.06990 | 34997 ft | 508 kts | 31° |
| 2026-05-08 03:12 | 23.20651 | 124.11314 | 35000 ft | 508 kts | 31° |
| 2026-05-08 03:13 | 23.26498 | 124.15638 | 35000 ft | 508 kts | 30° |
| 2026-05-08 03:13 | 23.32346 | 124.19970 | 34999 ft | 509 kts | 31° |
| 2026-05-08 03:14 | 23.37635 | 124.25131 | 35006 ft | 515 kts | 44° |
| 2026-05-08 03:14 | 23.42426 | 124.30943 | 35003 ft | 516 kts | 45° |
| 2026-05-08 03:15 | 23.47131 | 124.36847 | 35001 ft | 516 kts | 46° |
| 2026-05-08 03:15 | 23.51841 | 124.42759 | 35001 ft | 516 kts | 45° |
| 2026-05-08 03:16 | 23.56561 | 124.48659 | 35003 ft | 517 kts | 45° |
| 2026-05-08 03:16 | 23.61290 | 124.54564 | 35002 ft | 517 kts | 45° |
| 2026-05-08 03:17 | 23.66015 | 124.60470 | 35005 ft | 517 kts | 46° |
| 2026-05-08 03:17 | 23.70747 | 124.66392 | 35006 ft | 517 kts | 46° |
| 2026-05-08 03:18 | 23.75473 | 124.72315 | 35004 ft | 518 kts | 46° |
| 2026-05-08 03:18 | 23.80206 | 124.78254 | 35008 ft | 518 kts | 46° |
| 2026-05-08 03:19 | 23.84942 | 124.84205 | 35007 ft | 519 kts | 46° |
| 2026-05-08 03:19 | 23.89677 | 124.90162 | 35005 ft | 519 kts | 46° |
| 2026-05-08 03:20 | 23.94411 | 124.96124 | 35007 ft | 520 kts | 46° |
| 2026-05-08 03:20 | 23.99152 | 125.02102 | 35005 ft | 520 kts | 46° |
| 2026-05-08 03:21 | 24.03890 | 125.08083 | 35009 ft | 520 kts | 46° |
| 2026-05-08 03:21 | 24.08627 | 125.14072 | 35011 ft | 521 kts | 46° |
| 2026-05-08 03:22 | 24.13364 | 125.20066 | 35012 ft | 521 kts | 46° |
| 2026-05-08 03:22 | 24.18108 | 125.26077 | 35006 ft | 521 kts | 46° |
| 2026-05-08 03:23 | 24.22849 | 125.32093 | 35009 ft | 522 kts | 46° |
| 2026-05-08 03:23 | 24.27589 | 125.38115 | 35011 ft | 522 kts | 46° |
| 2026-05-08 03:24 | 24.32333 | 125.44149 | 35009 ft | 522 kts | 46° |
| 2026-05-08 03:24 | 24.37075 | 125.50187 | 35011 ft | 522 kts | 46° |
| 2026-05-08 03:25 | 24.41821 | 125.56239 | 35015 ft | 523 kts | 46° |
| 2026-05-08 03:25 | 24.46557 | 125.62287 | 35011 ft | 523 kts | 46° |
| 2026-05-08 03:26 | 24.51299 | 125.68348 | 35010 ft | 523 kts | 46° |
| 2026-05-08 03:26 | 24.56033 | 125.74407 | 35010 ft | 523 kts | 45° |
| 2026-05-08 03:27 | 24.60773 | 125.80480 | 35014 ft | 523 kts | 46° |
| 2026-05-08 03:27 | 24.65509 | 125.86556 | 35002 ft | 524 kts | 46° |
| 2026-05-08 03:28 | 24.70249 | 125.92646 | 35008 ft | 524 kts | 45° |
| 2026-05-08 03:28 | 24.74988 | 125.98742 | 35020 ft | 524 kts | 45° |
| 2026-05-08 03:29 | 24.79723 | 126.04841 | 35013 ft | 524 kts | 45° |
| 2026-05-08 03:29 | 24.84467 | 126.10957 | 35014 ft | 525 kts | 45° |
| 2026-05-08 03:30 | 24.91578 | 126.20145 | 35010 ft | 526 kts | 46° |
| 2026-05-08 03:31 | 25.01058 | 126.32421 | 35014 ft | 526 kts | 46° |
| 2026-05-08 03:32 | 25.08179 | 126.41664 | 35012 ft | 527 kts | 46° |
| 2026-05-08 03:32 | 25.12925 | 126.47834 | 35015 ft | 528 kts | 46° |
| 2026-05-08 03:33 | 25.17671 | 126.54012 | 35012 ft | 528 kts | 46° |
| 2026-05-08 03:33 | 25.22393 | 126.60167 | 35013 ft | 528 kts | 46° |
| 2026-05-08 03:34 | 25.27177 | 126.66410 | 35013 ft | 529 kts | 46° |
| 2026-05-08 03:34 | 25.31928 | 126.72620 | 35016 ft | 529 kts | 46° |
| 2026-05-08 03:35 | 25.36642 | 126.78789 | 35013 ft | 529 kts | 46° |
| 2026-05-08 03:35 | 25.41394 | 126.85016 | 35015 ft | 530 kts | 46° |
| 2026-05-08 03:36 | 25.46142 | 126.91245 | 35016 ft | 530 kts | 46° |
| 2026-05-08 03:36 | 25.50897 | 126.97492 | 35013 ft | 530 kts | 46° |
| 2026-05-08 03:37 | 25.55648 | 127.03743 | 35017 ft | 531 kts | 46° |
| 2026-05-08 03:37 | 25.60397 | 127.10000 | 35016 ft | 531 kts | 46° |
| 2026-05-08 03:38 | 25.65245 | 127.16162 | 35016 ft | 530 kts | 44° |
| 2026-05-08 03:38 | 25.70182 | 127.22242 | 35018 ft | 530 kts | 44° |
| 2026-05-08 03:39 | 25.75106 | 127.28345 | 35016 ft | 531 kts | 44° |
| 2026-05-08 03:39 | 25.80010 | 127.34474 | 35020 ft | 531 kts | 44° |
| 2026-05-08 03:40 | 25.84076 | 127.39577 | 35019 ft | 532 kts | 44° |
| 2026-05-08 03:40 | 25.88980 | 127.45739 | 35018 ft | 532 kts | 44° |
| 2026-05-08 03:41 | 25.93911 | 127.51941 | 35012 ft | 532 kts | 44° |
| 2026-05-08 03:41 | 25.98777 | 127.58068 | 35005 ft | 533 kts | 44° |
| 2026-05-08 03:42 | 26.03677 | 127.64248 | 34998 ft | 533 kts | 44° |
| 2026-05-08 03:42 | 26.08614 | 127.70482 | 34998 ft | 534 kts | 44° |
| 2026-05-08 03:43 | 26.13522 | 127.76690 | 34997 ft | 535 kts | 44° |
| 2026-05-08 03:43 | 26.18796 | 127.82459 | 35033 ft | 530 kts | 36° |
| 2026-05-08 03:44 | 26.24420 | 127.87785 | 35034 ft | 530 kts | 35° |
| 2026-05-08 03:44 | 26.30084 | 127.93045 | 35019 ft | 530 kts | 35° |
| 2026-05-08 03:45 | 26.35718 | 127.98286 | 35019 ft | 531 kts | 35° |
| 2026-05-08 03:45 | 26.41382 | 128.03582 | 35022 ft | 532 kts | 35° |
| 2026-05-08 03:46 | 26.47085 | 128.08928 | 35023 ft | 533 kts | 35° |
| 2026-05-08 03:46 | 26.52759 | 128.14255 | 35027 ft | 533 kts | 35° |
| 2026-05-08 03:47 | 26.58436 | 128.19592 | 35029 ft | 534 kts | 35° |
| 2026-05-08 03:47 | 26.64117 | 128.24940 | 35033 ft | 534 kts | 35° |
| 2026-05-08 03:48 | 26.69767 | 128.30262 | 35027 ft | 534 kts | 35° |
| 2026-05-08 03:48 | 26.75449 | 128.35625 | 35027 ft | 535 kts | 35° |
| 2026-05-08 03:49 | 26.81179 | 128.41041 | 35030 ft | 536 kts | 35° |
| 2026-05-08 03:49 | 26.86840 | 128.46399 | 35027 ft | 536 kts | 35° |
| 2026-05-08 03:50 | 26.92567 | 128.51827 | 35024 ft | 536 kts | 35° |
| 2026-05-08 03:50 | 26.98253 | 128.57222 | 35026 ft | 536 kts | 35° |
| 2026-05-08 03:51 | 27.03905 | 128.62592 | 35025 ft | 536 kts | 35° |
| 2026-05-08 03:51 | 27.09591 | 128.68003 | 35026 ft | 536 kts | 35° |
| 2026-05-08 03:52 | 27.15277 | 128.73421 | 35031 ft | 535 kts | 35° |
| 2026-05-08 03:52 | 27.20945 | 128.78830 | 35031 ft | 535 kts | 35° |
| 2026-05-08 03:53 | 27.26617 | 128.84248 | 35027 ft | 535 kts | 35° |
| 2026-05-08 03:53 | 27.32292 | 128.89677 | 35027 ft | 536 kts | 35° |
| 2026-05-08 03:54 | 27.37983 | 128.95129 | 35028 ft | 537 kts | 35° |
| 2026-05-08 03:54 | 27.43675 | 129.00590 | 35023 ft | 538 kts | 35° |
| 2026-05-08 03:55 | 27.49372 | 129.06064 | 35032 ft | 538 kts | 35° |
| 2026-05-08 03:55 | 27.54772 | 129.11952 | 35033 ft | 545 kts | 44° |
| 2026-05-08 03:56 | 27.59687 | 129.18467 | 35030 ft | 547 kts | 46° |
| 2026-05-08 03:56 | 27.64530 | 129.25092 | 35031 ft | 547 kts | 46° |
| 2026-05-08 03:57 | 27.69363 | 129.31718 | 35031 ft | 548 kts | 46° |
| 2026-05-08 03:57 | 27.74228 | 129.38371 | 35032 ft | 549 kts | 46° |
| 2026-05-08 03:58 | 27.79097 | 129.45025 | 35035 ft | 550 kts | 46° |
| 2026-05-08 03:58 | 27.83974 | 129.51702 | 35036 ft | 550 kts | 46° |
| 2026-05-08 03:59 | 27.88840 | 129.58374 | 35034 ft | 550 kts | 46° |
| 2026-05-08 03:59 | 27.93706 | 129.65056 | 35032 ft | 550 kts | 46° |
| 2026-05-08 04:00 | 27.98574 | 129.71751 | 35035 ft | 550 kts | 46° |
| 2026-05-08 04:00 | 28.03429 | 129.78439 | 35031 ft | 549 kts | 46° |
| 2026-05-08 04:01 | 28.08271 | 129.85121 | 35029 ft | 548 kts | 46° |
| 2026-05-08 04:01 | 28.13102 | 129.91796 | 35027 ft | 548 kts | 46° |
| 2026-05-08 04:02 | 28.17927 | 129.98474 | 35024 ft | 547 kts | 46° |
| 2026-05-08 04:02 | 28.22742 | 130.05149 | 35024 ft | 547 kts | 46° |
| 2026-05-08 04:03 | 28.27553 | 130.11829 | 35027 ft | 546 kts | 46° |
| 2026-05-08 04:03 | 28.34762 | 130.21856 | 35031 ft | 546 kts | 46° |
| 2026-05-08 04:04 | 28.39567 | 130.28553 | 35030 ft | 547 kts | 46° |
| 2026-05-08 04:04 | 28.44370 | 130.35258 | 35029 ft | 547 kts | 46° |
| 2026-05-08 04:05 | 28.49171 | 130.41972 | 35023 ft | 547 kts | 46° |
| 2026-05-08 04:05 | 28.53963 | 130.48683 | 35018 ft | 547 kts | 46° |
| 2026-05-08 04:06 | 28.58756 | 130.55406 | 35016 ft | 547 kts | 46° |
| 2026-05-08 04:06 | 28.63549 | 130.62140 | 35027 ft | 548 kts | 47° |
| 2026-05-08 04:07 | 28.68345 | 130.68891 | 35018 ft | 548 kts | 47° |
| 2026-05-08 04:07 | 28.73144 | 130.75656 | 35020 ft | 549 kts | 46° |
| 2026-05-08 04:08 | 28.77948 | 130.82439 | 35017 ft | 550 kts | 46° |
| 2026-05-08 04:08 | 28.82753 | 130.89234 | 35018 ft | 550 kts | 47° |
| 2026-05-08 04:09 | 28.87554 | 130.96036 | 35016 ft | 550 kts | 47° |
| 2026-05-08 04:09 | 28.92353 | 131.02844 | 35017 ft | 551 kts | 47° |
| 2026-05-08 04:10 | 28.97126 | 131.09627 | 35017 ft | 551 kts | 47° |
| 2026-05-08 04:10 | 29.01918 | 131.16449 | 35015 ft | 550 kts | 47° |
| 2026-05-08 04:11 | 29.06705 | 131.23274 | 35017 ft | 550 kts | 47° |
| 2026-05-08 04:11 | 29.11481 | 131.30096 | 35008 ft | 549 kts | 47° |
| 2026-05-08 04:12 | 29.16248 | 131.36914 | 35008 ft | 548 kts | 47° |
| 2026-05-08 04:12 | 29.21008 | 131.43734 | 35008 ft | 548 kts | 47° |
| 2026-05-08 04:13 | 29.25759 | 131.50554 | 35006 ft | 547 kts | 47° |
| 2026-05-08 04:13 | 29.30503 | 131.57373 | 35004 ft | 547 kts | 47° |
| 2026-05-08 04:14 | 29.35246 | 131.64202 | 34998 ft | 548 kts | 47° |
| 2026-05-08 04:14 | 29.39991 | 131.71047 | 34996 ft | 548 kts | 48° |
| 2026-05-08 04:15 | 29.44743 | 131.77913 | 34997 ft | 549 kts | 48° |
| 2026-05-08 04:15 | 29.49487 | 131.84780 | 34993 ft | 550 kts | 48° |
| 2026-05-08 04:16 | 29.54240 | 131.91671 | 34996 ft | 550 kts | 48° |
| 2026-05-08 04:16 | 29.58991 | 131.98570 | 34998 ft | 550 kts | 48° |
| 2026-05-08 04:17 | 29.63720 | 132.05450 | 35011 ft | 550 kts | 48° |
| 2026-05-08 04:17 | 29.66098 | 132.08915 | 35253 ft | 548 kts | 48° |
| 2026-05-08 04:17 | 29.68470 | 132.12323 | 35589 ft | 544 kts | 47° |
| 2026-05-08 04:18 | 29.70868 | 132.15685 | 35847 ft | 543 kts | 46° |
| 2026-05-08 04:18 | 29.73273 | 132.19027 | 36096 ft | 541 kts | 46° |
| 2026-05-08 04:18 | 29.75671 | 132.22355 | 36295 ft | 541 kts | 46° |
| 2026-05-08 04:18 | 29.78068 | 132.25694 | 36493 ft | 541 kts | 46° |
| 2026-05-08 04:19 | 29.80456 | 132.29033 | 36694 ft | 540 kts | 46° |
| 2026-05-08 04:19 | 29.82841 | 132.32382 | 36907 ft | 539 kts | 46° |
| 2026-05-08 04:19 | 29.87615 | 132.39102 | 36985 ft | 545 kts | 46° |
| 2026-05-08 04:20 | 29.91603 | 132.44727 | 36983 ft | 545 kts | 46° |
| 2026-05-08 04:20 | 29.96387 | 132.51493 | 36981 ft | 544 kts | 46° |
| 2026-05-08 04:21 | 30.01169 | 132.58265 | 36978 ft | 544 kts | 46° |
| 2026-05-08 04:21 | 30.05942 | 132.65033 | 36962 ft | 544 kts | 46° |
| 2026-05-08 04:22 | 30.10711 | 132.71806 | 36973 ft | 543 kts | 46° |
| 2026-05-08 04:22 | 30.15471 | 132.78579 | 36971 ft | 543 kts | 46° |
| 2026-05-08 04:23 | 30.20217 | 132.85342 | 36976 ft | 542 kts | 46° |
| 2026-05-08 04:23 | 30.24976 | 132.92136 | 36982 ft | 542 kts | 46° |
| 2026-05-08 04:24 | 30.29715 | 132.98914 | 36970 ft | 541 kts | 46° |
| 2026-05-08 04:24 | 30.34448 | 133.05693 | 36966 ft | 542 kts | 46° |
| 2026-05-08 04:25 | 30.39183 | 133.12486 | 36971 ft | 542 kts | 46° |
| 2026-05-08 04:25 | 30.43909 | 133.19280 | 36966 ft | 542 kts | 46° |
| 2026-05-08 04:26 | 30.48635 | 133.26085 | 36964 ft | 541 kts | 46° |
| 2026-05-08 04:26 | 30.53345 | 133.32879 | 36967 ft | 540 kts | 46° |
| 2026-05-08 04:27 | 30.58049 | 133.39675 | 36964 ft | 539 kts | 46° |
| 2026-05-08 04:27 | 30.62742 | 133.46468 | 36959 ft | 539 kts | 46° |
| 2026-05-08 04:28 | 30.67391 | 133.53207 | 36959 ft | 538 kts | 46° |
| 2026-05-08 04:28 | 30.72063 | 133.59993 | 36952 ft | 537 kts | 46° |
| 2026-05-08 04:29 | 30.76720 | 133.66767 | 36952 ft | 536 kts | 46° |
| 2026-05-08 04:29 | 30.81367 | 133.73540 | 36951 ft | 535 kts | 46° |
| 2026-05-08 04:30 | 30.86008 | 133.80307 | 36950 ft | 534 kts | 46° |
| 2026-05-08 04:30 | 30.90641 | 133.87078 | 36944 ft | 534 kts | 47° |
| 2026-05-08 04:31 | 30.95261 | 133.93843 | 36941 ft | 533 kts | 47° |
| 2026-05-08 04:31 | 30.99866 | 134.00597 | 36941 ft | 532 kts | 47° |
| 2026-05-08 04:32 | 31.04467 | 134.07355 | 36940 ft | 531 kts | 47° |
| 2026-05-08 04:32 | 31.09055 | 134.14107 | 36940 ft | 530 kts | 47° |
| 2026-05-08 04:33 | 31.13635 | 134.20858 | 36938 ft | 530 kts | 47° |
| 2026-05-08 04:33 | 31.18204 | 134.27604 | 36938 ft | 529 kts | 47° |
| 2026-05-08 04:34 | 31.22764 | 134.34349 | 36932 ft | 529 kts | 47° |
| 2026-05-08 04:34 | 31.27320 | 134.41099 | 36931 ft | 528 kts | 47° |
| 2026-05-08 04:35 | 31.31870 | 134.47853 | 36926 ft | 528 kts | 47° |
| 2026-05-08 04:35 | 31.36414 | 134.54611 | 36932 ft | 528 kts | 47° |
| 2026-05-08 04:36 | 31.40950 | 134.61367 | 36928 ft | 527 kts | 47° |
| 2026-05-08 04:36 | 31.45479 | 134.68124 | 36927 ft | 527 kts | 48° |
| 2026-05-08 04:37 | 31.50001 | 134.74884 | 36927 ft | 527 kts | 48° |
| 2026-05-08 04:37 | 31.54519 | 134.81650 | 36912 ft | 527 kts | 48° |
| 2026-05-08 04:38 | 31.59006 | 134.88380 | 36912 ft | 527 kts | 48° |
| 2026-05-08 04:38 | 31.63528 | 134.95173 | 36917 ft | 528 kts | 48° |
| 2026-05-08 04:39 | 31.68043 | 135.01977 | 36936 ft | 531 kts | 46° |
| 2026-05-08 04:39 | 31.72613 | 135.08867 | 36916 ft | 539 kts | 46° |
| 2026-05-08 04:40 | 31.77565 | 135.15518 | 36915 ft | 543 kts | 41° |
| 2026-05-08 04:40 | 31.82770 | 135.22053 | 36913 ft | 551 kts | 41° |
| 2026-05-08 04:41 | 31.88002 | 135.28733 | 36908 ft | 558 kts | 42° |
| 2026-05-08 04:41 | 31.93209 | 135.35518 | 36908 ft | 558 kts | 42° |
| 2026-05-08 04:42 | 31.98389 | 135.42320 | 36907 ft | 558 kts | 42° |
| 2026-05-08 04:42 | 32.03569 | 135.49128 | 36903 ft | 558 kts | 42° |
| 2026-05-08 04:43 | 32.08755 | 135.55950 | 36905 ft | 558 kts | 42° |
| 2026-05-08 04:43 | 32.13941 | 135.62781 | 36900 ft | 559 kts | 43° |
| 2026-05-08 04:44 | 32.19121 | 135.69618 | 36897 ft | 559 kts | 43° |
| 2026-05-08 04:44 | 32.24299 | 135.76464 | 36898 ft | 559 kts | 43° |
| 2026-05-08 04:45 | 32.29479 | 135.83326 | 36895 ft | 559 kts | 43° |
| 2026-05-08 04:45 | 32.34656 | 135.90196 | 36886 ft | 559 kts | 43° |
| 2026-05-08 04:46 | 32.39827 | 135.97073 | 36886 ft | 560 kts | 43° |
| 2026-05-08 04:46 | 32.44639 | 136.04373 | 36885 ft | 566 kts | 51° |
| 2026-05-08 04:47 | 32.48959 | 136.12192 | 36891 ft | 568 kts | 53° |
| 2026-05-08 04:47 | 32.53196 | 136.20088 | 36870 ft | 568 kts | 53° |
| 2026-05-08 04:48 | 32.57431 | 136.27995 | 36883 ft | 568 kts | 53° |
| 2026-05-08 04:48 | 32.61682 | 136.35912 | 36868 ft | 569 kts | 53° |
| 2026-05-08 04:49 | 32.65934 | 136.43832 | 36868 ft | 569 kts | 53° |
| 2026-05-08 04:49 | 32.70180 | 136.51757 | 36870 ft | 568 kts | 53° |
| 2026-05-08 04:50 | 32.74394 | 136.59639 | 36871 ft | 568 kts | 53° |
| 2026-05-08 04:50 | 32.78624 | 136.67571 | 36872 ft | 568 kts | 53° |
| 2026-05-08 04:51 | 32.82856 | 136.75521 | 36868 ft | 568 kts | 53° |
| 2026-05-08 04:51 | 32.87074 | 136.83463 | 36864 ft | 568 kts | 53° |
| 2026-05-08 04:52 | 32.91290 | 136.91421 | 36865 ft | 568 kts | 53° |
| 2026-05-08 04:52 | 32.95497 | 136.99375 | 36861 ft | 568 kts | 53° |
| 2026-05-08 04:53 | 32.99725 | 137.07387 | 36860 ft | 568 kts | 54° |
| 2026-05-08 04:53 | 33.03898 | 137.15313 | 36857 ft | 568 kts | 54° |
| 2026-05-08 04:54 | 33.08090 | 137.23290 | 36854 ft | 568 kts | 54° |
| 2026-05-08 04:54 | 33.12285 | 137.31291 | 36853 ft | 569 kts | 54° |
| 2026-05-08 04:55 | 33.16477 | 137.39304 | 36852 ft | 569 kts | 54° |
| 2026-05-08 04:55 | 33.20660 | 137.47329 | 36848 ft | 570 kts | 54° |
| 2026-05-08 04:56 | 33.24847 | 137.55360 | 36847 ft | 570 kts | 54° |
| 2026-05-08 04:56 | 33.29033 | 137.63397 | 36844 ft | 569 kts | 54° |
| 2026-05-08 04:57 | 33.33216 | 137.71450 | 36845 ft | 570 kts | 54° |
| 2026-05-08 04:57 | 33.37385 | 137.79500 | 36843 ft | 569 kts | 54° |
| 2026-05-08 04:58 | 33.41543 | 137.87547 | 36839 ft | 568 kts | 55° |
| 2026-05-08 04:58 | 33.45690 | 137.95593 | 36837 ft | 568 kts | 55° |
| 2026-05-08 04:59 | 33.49835 | 138.03647 | 36834 ft | 568 kts | 55° |
| 2026-05-08 04:59 | 33.53973 | 138.11704 | 36835 ft | 568 kts | 55° |
| 2026-05-08 05:00 | 33.58106 | 138.19769 | 36836 ft | 568 kts | 55° |
| 2026-05-08 05:00 | 33.62234 | 138.27840 | 36835 ft | 567 kts | 55° |
| 2026-05-08 05:01 | 33.66351 | 138.35909 | 36832 ft | 567 kts | 55° |
| 2026-05-08 05:01 | 33.70440 | 138.43942 | 36828 ft | 566 kts | 56° |
| 2026-05-08 05:02 | 33.74540 | 138.52017 | 36826 ft | 566 kts | 56° |
| 2026-05-08 05:02 | 33.78637 | 138.60105 | 36827 ft | 566 kts | 56° |
| 2026-05-08 05:03 | 33.82067 | 138.66879 | 36823 ft | 566 kts | 56° |
| 2026-05-08 05:03 | 33.86156 | 138.74974 | 36822 ft | 566 kts | 56° |
| 2026-05-08 05:04 | 33.90233 | 138.83068 | 36825 ft | 566 kts | 56° |
| 2026-05-08 05:04 | 33.94310 | 138.91178 | 36820 ft | 566 kts | 56° |
| 2026-05-08 05:05 | 33.98375 | 138.99285 | 36817 ft | 565 kts | 56° |
| 2026-05-08 05:05 | 34.02432 | 139.07396 | 36818 ft | 565 kts | 56° |
| 2026-05-08 05:06 | 34.06486 | 139.15517 | 36823 ft | 565 kts | 56° |
| 2026-05-08 05:06 | 34.10524 | 139.23626 | 36820 ft | 564 kts | 56° |
| 2026-05-08 05:07 | 34.14555 | 139.31741 | 36817 ft | 563 kts | 57° |
| 2026-05-08 05:07 | 34.18556 | 139.39809 | 36823 ft | 563 kts | 57° |
| 2026-05-08 05:08 | 34.22571 | 139.47918 | 36816 ft | 562 kts | 57° |
| 2026-05-08 05:08 | 34.26580 | 139.56038 | 36816 ft | 562 kts | 57° |
| 2026-05-08 05:09 | 34.30583 | 139.64165 | 36815 ft | 562 kts | 57° |
| 2026-05-08 05:09 | 34.34577 | 139.72292 | 36819 ft | 562 kts | 57° |
| 2026-05-08 05:10 | 34.40555 | 139.84489 | 36798 ft | 562 kts | 57° |
| 2026-05-08 05:11 | 34.44534 | 139.92631 | 36818 ft | 562 kts | 57° |
| 2026-05-08 05:11 | 34.48514 | 140.00794 | 36822 ft | 562 kts | 57° |
| 2026-05-08 05:12 | 34.52487 | 140.08965 | 36806 ft | 563 kts | 57° |
| 2026-05-08 05:12 | 34.56464 | 140.17159 | 36814 ft | 563 kts | 57° |
| 2026-05-08 05:13 | 34.60430 | 140.25353 | 36807 ft | 563 kts | 58° |
| 2026-05-08 05:13 | 34.64397 | 140.33565 | 36806 ft | 564 kts | 58° |
| 2026-05-08 05:14 | 34.68356 | 140.41782 | 36805 ft | 564 kts | 58° |
| 2026-05-08 05:14 | 34.72259 | 140.49975 | 36805 ft | 564 kts | 59° |
| 2026-05-08 05:15 | 34.76106 | 140.58369 | 36806 ft | 564 kts | 59° |
| 2026-05-08 05:15 | 34.79876 | 140.66656 | 36807 ft | 564 kts | 59° |
| 2026-05-08 05:16 | 34.83684 | 140.74993 | 36804 ft | 564 kts | 59° |
| 2026-05-08 05:16 | 34.87499 | 140.83341 | 36803 ft | 564 kts | 60° |
| 2026-05-08 05:17 | 34.91306 | 140.91686 | 36798 ft | 564 kts | 60° |
| 2026-05-08 05:17 | 34.95112 | 141.00050 | 36798 ft | 564 kts | 60° |
| 2026-05-08 05:18 | 34.98909 | 141.08417 | 36797 ft | 564 kts | 60° |
| 2026-05-08 05:18 | 35.02704 | 141.16801 | 36798 ft | 564 kts | 60° |
| 2026-05-08 05:19 | 35.06493 | 141.25194 | 36799 ft | 565 kts | 60° |
| 2026-05-08 05:19 | 35.10279 | 141.33598 | 36801 ft | 565 kts | 60° |
| 2026-05-08 05:20 | 35.14060 | 141.42012 | 36796 ft | 565 kts | 60° |
| 2026-05-08 05:20 | 35.17834 | 141.50433 | 36799 ft | 565 kts | 60° |
| 2026-05-08 05:21 | 35.21606 | 141.58869 | 36798 ft | 565 kts | 60° |
| 2026-05-08 05:21 | 35.25367 | 141.67300 | 36802 ft | 564 kts | 60° |
| 2026-05-08 05:22 | 35.29118 | 141.75731 | 36797 ft | 564 kts | 60° |
| 2026-05-08 05:22 | 35.32861 | 141.84164 | 36795 ft | 564 kts | 60° |
| 2026-05-08 05:23 | 35.36596 | 141.92601 | 36794 ft | 563 kts | 61° |
| 2026-05-08 05:23 | 35.40334 | 142.01065 | 36794 ft | 563 kts | 61° |
| 2026-05-08 05:24 | 35.44053 | 142.09509 | 36794 ft | 563 kts | 61° |
| 2026-05-08 05:24 | 35.47745 | 142.17911 | 36794 ft | 563 kts | 61° |
| 2026-05-08 05:25 | 35.51478 | 142.26427 | 36793 ft | 563 kts | 61° |
| 2026-05-08 05:25 | 35.55155 | 142.34838 | 36796 ft | 563 kts | 61° |
| 2026-05-08 05:26 | 35.58855 | 142.43324 | 36798 ft | 563 kts | 61° |
| 2026-05-08 05:26 | 35.62544 | 142.51803 | 36800 ft | 563 kts | 61° |
| 2026-05-08 05:27 | 35.66228 | 142.60295 | 36799 ft | 563 kts | 61° |
| 2026-05-08 05:27 | 35.69903 | 142.68786 | 36803 ft | 562 kts | 61° |
| 2026-05-08 05:28 | 35.73576 | 142.77293 | 36799 ft | 562 kts | 62° |
| 2026-05-08 05:28 | 35.77236 | 142.85794 | 36805 ft | 562 kts | 62° |
| 2026-05-08 05:29 | 35.80895 | 142.94313 | 36804 ft | 562 kts | 62° |
| 2026-05-08 05:29 | 35.84543 | 143.02828 | 36805 ft | 562 kts | 62° |
| 2026-05-08 05:30 | 35.88189 | 143.11363 | 36807 ft | 562 kts | 62° |
| 2026-05-08 05:30 | 35.91986 | 143.19787 | 36809 ft | 562 kts | 54° |
| 2026-05-08 05:30 | 35.94442 | 143.23510 | 36805 ft | 558 kts | 43° |
| 2026-05-08 05:31 | 35.97336 | 143.26676 | 36811 ft | 555 kts | 35° |
| 2026-05-08 05:31 | 36.03468 | 143.32468 | 36807 ft | 555 kts | 32° |
| 2026-05-08 05:32 | 36.09709 | 143.38109 | 36805 ft | 556 kts | 32° |
| 2026-05-08 05:32 | 36.15942 | 143.43779 | 36808 ft | 556 kts | 33° |
| 2026-05-08 05:33 | 36.22158 | 143.49493 | 36804 ft | 557 kts | 33° |
| 2026-05-08 05:33 | 36.28361 | 143.55229 | 36803 ft | 557 kts | 33° |
| 2026-05-08 05:34 | 36.34567 | 143.60979 | 36799 ft | 556 kts | 33° |
| 2026-05-08 05:34 | 36.40759 | 143.66725 | 36801 ft | 556 kts | 33° |
| 2026-05-08 05:35 | 36.46948 | 143.72479 | 36803 ft | 555 kts | 33° |
| 2026-05-08 05:35 | 36.53166 | 143.78271 | 36800 ft | 555 kts | 33° |
| 2026-05-08 05:36 | 36.59307 | 143.84004 | 36802 ft | 555 kts | 33° |
| 2026-05-08 05:36 | 36.65479 | 143.89777 | 36802 ft | 555 kts | 33° |
| 2026-05-08 05:37 | 36.71660 | 143.95571 | 36801 ft | 555 kts | 33° |
| 2026-05-08 05:37 | 36.77835 | 144.01371 | 36800 ft | 556 kts | 33° |
| 2026-05-08 05:38 | 36.84011 | 144.07184 | 36798 ft | 556 kts | 33° |
| 2026-05-08 05:38 | 36.90195 | 144.13017 | 36797 ft | 556 kts | 33° |
| 2026-05-08 05:39 | 36.96371 | 144.18853 | 36794 ft | 557 kts | 34° |
| 2026-05-08 05:39 | 37.02553 | 144.24709 | 36795 ft | 557 kts | 34° |
| 2026-05-08 05:40 | 37.08723 | 144.30580 | 36797 ft | 557 kts | 34° |
| 2026-05-08 05:40 | 37.14894 | 144.36461 | 36799 ft | 557 kts | 34° |
| 2026-05-08 05:41 | 37.21064 | 144.42353 | 36792 ft | 557 kts | 34° |
| 2026-05-08 05:41 | 37.27227 | 144.48250 | 36790 ft | 557 kts | 34° |
| 2026-05-08 05:42 | 37.33395 | 144.54166 | 36789 ft | 557 kts | 34° |
| 2026-05-08 05:42 | 37.39553 | 144.60086 | 36790 ft | 557 kts | 34° |
| 2026-05-08 05:43 | 37.45712 | 144.66019 | 36788 ft | 558 kts | 34° |
| 2026-05-08 05:43 | 37.50825 | 144.70954 | 36786 ft | 558 kts | 34° |
| 2026-05-08 05:44 | 37.56978 | 144.76905 | 36789 ft | 558 kts | 34° |
| 2026-05-08 05:44 | 37.63137 | 144.82873 | 36793 ft | 558 kts | 34° |
| 2026-05-08 05:45 | 37.69287 | 144.88846 | 36795 ft | 558 kts | 35° |
| 2026-05-08 05:45 | 37.75432 | 144.94827 | 36789 ft | 558 kts | 35° |
| 2026-05-08 05:46 | 37.81584 | 145.00828 | 36783 ft | 558 kts | 35° |
| 2026-05-08 05:46 | 37.87721 | 145.06827 | 36787 ft | 558 kts | 35° |
| 2026-05-08 05:47 | 37.93856 | 145.12837 | 36788 ft | 557 kts | 35° |
| 2026-05-08 05:47 | 37.99991 | 145.18861 | 36788 ft | 557 kts | 35° |
| 2026-05-08 05:48 | 38.06114 | 145.24885 | 36785 ft | 557 kts | 35° |
| 2026-05-08 05:48 | 38.12230 | 145.30915 | 36784 ft | 557 kts | 35° |
| 2026-05-08 05:49 | 38.18348 | 145.36961 | 36787 ft | 557 kts | 35° |
| 2026-05-08 05:49 | 38.24453 | 145.43007 | 36787 ft | 556 kts | 35° |
| 2026-05-08 05:50 | 38.30556 | 145.49065 | 36788 ft | 556 kts | 35° |
| 2026-05-08 05:50 | 38.36593 | 145.55236 | 36789 ft | 557 kts | 39° |
| 2026-05-08 05:51 | 38.42256 | 145.61982 | 36786 ft | 558 kts | 42° |
| 2026-05-08 05:51 | 38.47850 | 145.68839 | 36789 ft | 557 kts | 41° |
| 2026-05-08 05:52 | 38.53494 | 145.75620 | 36792 ft | 557 kts | 41° |
| 2026-05-08 05:52 | 38.59172 | 145.82360 | 36789 ft | 557 kts | 40° |
| 2026-05-08 05:53 | 38.64849 | 145.89091 | 36787 ft | 557 kts | 40° |
| 2026-05-08 05:53 | 38.70520 | 145.95838 | 36795 ft | 557 kts | 41° |
| 2026-05-08 05:54 | 38.76191 | 146.02604 | 36795 ft | 557 kts | 41° |
| 2026-05-08 05:54 | 38.81859 | 146.09384 | 36791 ft | 557 kts | 41° |
| 2026-05-08 05:55 | 38.87521 | 146.16173 | 36794 ft | 557 kts | 41° |
| 2026-05-08 05:55 | 38.93178 | 146.22972 | 36798 ft | 557 kts | 41° |
| 2026-05-08 05:56 | 38.98829 | 146.29778 | 36795 ft | 557 kts | 41° |
| 2026-05-08 05:56 | 39.04478 | 146.36598 | 36798 ft | 557 kts | 41° |
| 2026-05-08 05:57 | 39.10127 | 146.43432 | 36798 ft | 557 kts | 41° |
| 2026-05-08 05:57 | 39.15764 | 146.50269 | 36800 ft | 557 kts | 41° |
| 2026-05-08 05:58 | 39.21398 | 146.57117 | 36795 ft | 557 kts | 41° |
| 2026-05-08 05:58 | 39.27031 | 146.63981 | 36800 ft | 557 kts | 41° |
| 2026-05-08 05:59 | 39.32658 | 146.70853 | 36801 ft | 557 kts | 41° |
| 2026-05-08 05:59 | 39.38279 | 146.77734 | 36792 ft | 557 kts | 41° |
| 2026-05-08 06:00 | 39.43894 | 146.84623 | 36795 ft | 557 kts | 41° |
| 2026-05-08 06:00 | 39.49512 | 146.91532 | 36799 ft | 557 kts | 41° |
| 2026-05-08 06:01 | 39.55120 | 146.98445 | 36797 ft | 557 kts | 41° |
| 2026-05-08 06:01 | 39.60725 | 147.05371 | 36790 ft | 557 kts | 41° |
| 2026-05-08 06:02 | 39.66322 | 147.12303 | 36796 ft | 556 kts | 41° |
| 2026-05-08 06:02 | 39.71913 | 147.19243 | 36809 ft | 556 kts | 41° |
| 2026-05-08 06:03 | 39.77507 | 147.26205 | 36802 ft | 556 kts | 41° |
| 2026-05-08 06:03 | 39.83049 | 147.33116 | 36802 ft | 555 kts | 41° |
| 2026-05-08 06:04 | 39.88659 | 147.40131 | 36799 ft | 555 kts | 41° |
| 2026-05-08 06:04 | 39.94225 | 147.47106 | 36803 ft | 555 kts | 41° |
| 2026-05-08 06:05 | 39.99789 | 147.54097 | 36808 ft | 555 kts | 41° |
| 2026-05-08 06:05 | 40.05309 | 147.61049 | 36804 ft | 555 kts | 41° |
| 2026-05-08 06:06 | 40.10895 | 147.68100 | 36805 ft | 555 kts | 41° |
| 2026-05-08 06:06 | 40.16405 | 147.75071 | 36807 ft | 555 kts | 41° |
| 2026-05-08 06:07 | 40.21977 | 147.82139 | 36808 ft | 555 kts | 41° |
| 2026-05-08 06:07 | 40.27511 | 147.89175 | 36807 ft | 555 kts | 41° |
| 2026-05-08 06:08 | 40.33010 | 147.96182 | 36808 ft | 555 kts | 41° |
| 2026-05-08 06:08 | 40.38536 | 148.03243 | 36807 ft | 555 kts | 42° |
| 2026-05-08 06:09 | 40.44060 | 148.10317 | 36807 ft | 555 kts | 42° |
| 2026-05-08 06:09 | 40.49588 | 148.17412 | 36806 ft | 555 kts | 42° |
| 2026-05-08 06:10 | 40.55103 | 148.24510 | 36812 ft | 555 kts | 42° |
| 2026-05-08 06:10 | 40.60617 | 148.31623 | 36806 ft | 555 kts | 42° |
| 2026-05-08 06:11 | 40.66133 | 148.38756 | 36805 ft | 555 kts | 42° |
| 2026-05-08 06:11 | 40.71638 | 148.45891 | 36807 ft | 555 kts | 42° |
| 2026-05-08 06:12 | 40.77139 | 148.53040 | 36808 ft | 555 kts | 42° |
| 2026-05-08 06:12 | 40.82634 | 148.60199 | 36806 ft | 555 kts | 42° |
| 2026-05-08 06:13 | 40.88126 | 148.67370 | 36808 ft | 555 kts | 42° |
| 2026-05-08 06:13 | 40.93611 | 148.74550 | 36809 ft | 555 kts | 42° |
| 2026-05-08 06:14 | 40.99092 | 148.81745 | 36805 ft | 555 kts | 42° |
| 2026-05-08 06:14 | 41.04580 | 148.88965 | 36803 ft | 556 kts | 42° |
| 2026-05-08 06:15 | 41.10060 | 148.96194 | 36805 ft | 556 kts | 42° |
| 2026-05-08 06:15 | 41.15497 | 149.03388 | 36804 ft | 556 kts | 42° |
| 2026-05-08 06:16 | 41.20964 | 149.10641 | 36804 ft | 556 kts | 42° |
| 2026-05-08 06:16 | 41.26428 | 149.17907 | 36807 ft | 556 kts | 42° |
| 2026-05-08 06:17 | 41.34616 | 149.28831 | 36800 ft | 555 kts | 43° |
| 2026-05-08 06:17 | 41.40070 | 149.36130 | 36802 ft | 555 kts | 43° |
| 2026-05-08 06:18 | 41.45506 | 149.43424 | 36802 ft | 555 kts | 43° |
| 2026-05-08 06:18 | 41.50946 | 149.50741 | 36802 ft | 555 kts | 43° |
| 2026-05-08 06:19 | 41.56370 | 149.58055 | 36803 ft | 555 kts | 43° |
| 2026-05-08 06:19 | 41.61796 | 149.65390 | 36800 ft | 554 kts | 43° |
| 2026-05-08 06:20 | 41.67213 | 149.72732 | 36800 ft | 554 kts | 43° |
| 2026-05-08 06:20 | 41.72618 | 149.80076 | 36795 ft | 554 kts | 43° |
| 2026-05-08 06:21 | 41.78026 | 149.87443 | 36798 ft | 554 kts | 43° |
| 2026-05-08 06:21 | 41.83425 | 149.94817 | 36798 ft | 554 kts | 43° |
| 2026-05-08 06:22 | 41.88823 | 150.02209 | 36795 ft | 554 kts | 43° |
| 2026-05-08 06:22 | 41.94215 | 150.09610 | 36793 ft | 554 kts | 43° |
| 2026-05-08 06:23 | 41.99603 | 150.17026 | 36792 ft | 554 kts | 43° |
| 2026-05-08 06:23 | 42.04975 | 150.24439 | 36792 ft | 554 kts | 43° |
| 2026-05-08 06:24 | 42.10357 | 150.31886 | 36796 ft | 554 kts | 43° |
| 2026-05-08 06:24 | 42.15696 | 150.39290 | 36790 ft | 554 kts | 43° |
| 2026-05-08 06:25 | 42.21071 | 150.46765 | 36793 ft | 555 kts | 43° |
| 2026-05-08 06:25 | 42.26441 | 150.54251 | 36789 ft | 555 kts | 43° |
| 2026-05-08 06:26 | 42.30936 | 150.60533 | 36789 ft | 555 kts | 43° |
| 2026-05-08 06:26 | 42.36296 | 150.68043 | 36787 ft | 555 kts | 43° |
| 2026-05-08 06:27 | 42.41649 | 150.75563 | 36789 ft | 555 kts | 43° |
| 2026-05-08 06:27 | 42.47002 | 150.83101 | 36787 ft | 555 kts | 43° |
| 2026-05-08 06:28 | 42.52357 | 150.90664 | 36785 ft | 556 kts | 43° |
| 2026-05-08 06:28 | 42.57700 | 150.98228 | 36787 ft | 556 kts | 43° |
| 2026-05-08 06:29 | 42.63047 | 151.05817 | 36787 ft | 556 kts | 43° |
| 2026-05-08 06:29 | 42.68359 | 151.13378 | 36786 ft | 556 kts | 43° |
| 2026-05-08 06:30 | 42.73700 | 151.21000 | 36787 ft | 556 kts | 44° |
| 2026-05-08 06:30 | 42.79033 | 151.28632 | 36782 ft | 556 kts | 44° |
| 2026-05-08 06:31 | 42.84361 | 151.36276 | 36781 ft | 557 kts | 44° |
| 2026-05-08 06:31 | 42.89691 | 151.43943 | 36792 ft | 557 kts | 44° |
| 2026-05-08 06:32 | 42.95017 | 151.51626 | 36789 ft | 557 kts | 44° |
| 2026-05-08 06:32 | 43.00341 | 151.59326 | 36792 ft | 558 kts | 44° |
| 2026-05-08 06:33 | 43.05661 | 151.67041 | 36795 ft | 558 kts | 44° |
| 2026-05-08 06:33 | 43.10980 | 151.74777 | 36789 ft | 558 kts | 44° |
| 2026-05-08 06:34 | 43.16298 | 151.82532 | 36786 ft | 558 kts | 44° |
| 2026-05-08 06:34 | 43.21608 | 151.90296 | 36791 ft | 558 kts | 44° |
| 2026-05-08 06:35 | 43.26913 | 151.98074 | 36787 ft | 559 kts | 44° |
| 2026-05-08 06:35 | 43.32222 | 152.05879 | 36788 ft | 559 kts | 44° |
| 2026-05-08 06:36 | 43.37529 | 152.13702 | 36786 ft | 559 kts | 44° |
| 2026-05-08 06:36 | 43.42833 | 152.21544 | 36790 ft | 560 kts | 44° |
| 2026-05-08 06:37 | 43.48126 | 152.29390 | 36791 ft | 560 kts | 44° |
| 2026-05-08 06:37 | 43.53423 | 152.37264 | 36796 ft | 560 kts | 44° |
| 2026-05-08 06:38 | 43.58714 | 152.45150 | 36797 ft | 560 kts | 44° |
| 2026-05-08 06:38 | 43.63998 | 152.53049 | 36796 ft | 561 kts | 44° |
| 2026-05-08 06:39 | 43.69286 | 152.60975 | 36799 ft | 561 kts | 44° |
| 2026-05-08 06:39 | 43.74567 | 152.68915 | 36803 ft | 561 kts | 44° |
| 2026-05-08 06:40 | 43.79850 | 152.76878 | 36804 ft | 562 kts | 44° |
| 2026-05-08 06:40 | 43.85129 | 152.84858 | 36807 ft | 562 kts | 44° |
| 2026-05-08 06:41 | 43.90407 | 152.92860 | 36811 ft | 562 kts | 44° |
| 2026-05-08 06:41 | 43.95682 | 153.00879 | 36809 ft | 563 kts | 44° |
| 2026-05-08 06:42 | 44.00958 | 153.08922 | 36816 ft | 563 kts | 44° |
| 2026-05-08 06:42 | 44.06231 | 153.16984 | 36822 ft | 564 kts | 44° |
| 2026-05-08 06:43 | 44.11510 | 153.25078 | 36810 ft | 565 kts | 44° |
| 2026-05-08 06:43 | 44.16786 | 153.33191 | 36822 ft | 565 kts | 44° |
| 2026-05-08 06:44 | 44.22057 | 153.41320 | 36823 ft | 566 kts | 44° |
| 2026-05-08 06:44 | 44.27336 | 153.49485 | 36829 ft | 566 kts | 44° |
| 2026-05-08 06:45 | 44.32614 | 153.57671 | 36830 ft | 567 kts | 44° |
| 2026-05-08 06:45 | 44.37890 | 153.65879 | 36834 ft | 567 kts | 44° |
| 2026-05-08 06:46 | 44.43126 | 153.74047 | 36836 ft | 568 kts | 44° |
| 2026-05-08 06:46 | 44.48432 | 153.82350 | 36841 ft | 569 kts | 44° |
| 2026-05-08 06:47 | 44.53703 | 153.90621 | 36843 ft | 569 kts | 44° |
| 2026-05-08 06:47 | 44.58970 | 153.98911 | 36849 ft | 570 kts | 44° |
| 2026-05-08 06:48 | 44.64245 | 154.07238 | 36848 ft | 571 kts | 44° |
| 2026-05-08 06:48 | 44.69510 | 154.15576 | 36853 ft | 571 kts | 44° |
| 2026-05-08 06:49 | 44.74781 | 154.23945 | 36858 ft | 571 kts | 44° |
| 2026-05-08 06:49 | 44.80046 | 154.32332 | 36858 ft | 572 kts | 44° |
| 2026-05-08 06:50 | 44.85308 | 154.40738 | 36861 ft | 572 kts | 44° |
| 2026-05-08 06:50 | 44.90535 | 154.49209 | 36866 ft | 573 kts | 45° |
| 2026-05-08 06:51 | 44.95710 | 154.57773 | 36870 ft | 573 kts | 45° |
| 2026-05-08 06:51 | 45.00851 | 154.66303 | 36874 ft | 574 kts | 45° |
| 2026-05-08 06:52 | 45.06062 | 154.74948 | 36874 ft | 574 kts | 45° |
| 2026-05-08 06:52 | 45.11246 | 154.83559 | 36877 ft | 574 kts | 45° |
| 2026-05-08 06:53 | 45.16421 | 154.92183 | 36880 ft | 574 kts | 45° |
| 2026-05-08 06:53 | 45.21555 | 155.00768 | 36883 ft | 574 kts | 45° |
| 2026-05-08 06:54 | 45.26717 | 155.09426 | 36881 ft | 575 kts | 45° |
| 2026-05-08 06:54 | 45.31906 | 155.18156 | 36884 ft | 575 kts | 45° |
| 2026-05-08 06:55 | 45.37060 | 155.26853 | 36886 ft | 575 kts | 45° |
| 2026-05-08 06:55 | 45.42207 | 155.35566 | 36890 ft | 575 kts | 45° |
| 2026-05-08 06:56 | 45.47328 | 155.44261 | 36891 ft | 576 kts | 45° |
| 2026-05-08 06:56 | 45.52503 | 155.53074 | 36894 ft | 576 kts | 45° |
| 2026-05-08 06:57 | 45.57642 | 155.61855 | 36887 ft | 577 kts | 45° |
| 2026-05-08 06:57 | 45.62782 | 155.70666 | 36895 ft | 577 kts | 45° |
| 2026-05-08 06:58 | 45.67880 | 155.79433 | 36899 ft | 577 kts | 45° |
| 2026-05-08 06:58 | 45.73007 | 155.88276 | 36901 ft | 578 kts | 45° |
| 2026-05-08 06:59 | 45.78132 | 155.97144 | 36899 ft | 578 kts | 45° |
| 2026-05-08 06:59 | 45.83254 | 156.06035 | 36914 ft | 578 kts | 45° |
| 2026-05-08 07:00 | 45.88372 | 156.14949 | 36909 ft | 578 kts | 45° |
| 2026-05-08 07:00 | 45.93483 | 156.23878 | 36911 ft | 579 kts | 45° |
| 2026-05-08 07:01 | 45.98587 | 156.32824 | 36918 ft | 579 kts | 45° |
| 2026-05-08 07:01 | 46.03692 | 156.41799 | 36920 ft | 580 kts | 45° |
| 2026-05-08 07:02 | 46.08794 | 156.50800 | 36917 ft | 580 kts | 45° |
| 2026-05-08 07:02 | 46.13893 | 156.59822 | 36918 ft | 581 kts | 45° |
| 2026-05-08 07:03 | 46.18992 | 156.68876 | 36921 ft | 581 kts | 45° |
| 2026-05-08 07:03 | 46.24079 | 156.77936 | 36920 ft | 582 kts | 45° |
| 2026-05-08 07:04 | 46.29175 | 156.87043 | 36927 ft | 582 kts | 45° |